ETD481 WIMM-OMAA
Flight info
| Callsign | ETD481 |
|---|---|
| Flight time | 6h 48m |
| Altitude | 34000 |
| Route | ANSAX P574 MIXAM P899 ROVOS |
| Aircraft | A21N/M-SDE3FGHIRWY/LB1 |
Departure
| Time | 2026-04-24 07:12 |
|---|---|
| Airport | Kualanamu International Airport (WIMM) |
Arrival
| Time | 2026-04-24 14:00 |
|---|---|
| Airport | Zayed International Airport (OMAA) |
| Time | Latitude | Longitude | Altitude | Speed | Heading |
|---|---|---|---|---|---|
| 2026-04-24 06:40 | 3.63856 | 98.87877 | 84 ft | 0 kts | 227° |
| 2026-04-24 06:57 | 3.63860 | 98.87882 | 84 ft | 2 kts | 227° |
| 2026-04-24 06:58 | 3.63870 | 98.87893 | 84 ft | 2 kts | 227° |
| 2026-04-24 06:58 | 3.63879 | 98.87906 | 84 ft | 2 kts | 245° |
| 2026-04-24 06:58 | 3.63884 | 98.87920 | 84 ft | 2 kts | 258° |
| 2026-04-24 06:58 | 3.63886 | 98.87935 | 84 ft | 2 kts | 272° |
| 2026-04-24 06:59 | 3.63884 | 98.87949 | 84 ft | 2 kts | 286° |
| 2026-04-24 06:59 | 3.63878 | 98.87964 | 84 ft | 2 kts | 300° |
| 2026-04-24 06:59 | 3.63870 | 98.87975 | 84 ft | 1 kts | 313° |
| 2026-04-24 06:59 | 3.63865 | 98.87980 | 84 ft | 1 kts | 316° |
| 2026-04-24 07:00 | 3.63865 | 98.87981 | 84 ft | 0 kts | 316° |
| 2026-04-24 07:02 | 3.63866 | 98.87979 | 84 ft | 0 kts | 316° |
| 2026-04-24 07:02 | 3.63874 | 98.87972 | 84 ft | 2 kts | 321° |
| 2026-04-24 07:02 | 3.63891 | 98.87965 | 84 ft | 3 kts | 347° |
| 2026-04-24 07:02 | 3.63917 | 98.87972 | 84 ft | 4 kts | 32° |
| 2026-04-24 07:03 | 3.63947 | 98.87998 | 84 ft | 7 kts | 44° |
| 2026-04-24 07:03 | 3.63990 | 98.88041 | 84 ft | 10 kts | 45° |
| 2026-04-24 07:03 | 3.64047 | 98.88097 | 84 ft | 12 kts | 45° |
| 2026-04-24 07:03 | 3.64118 | 98.88143 | 84 ft | 12 kts | 356° |
| 2026-04-24 07:04 | 3.64191 | 98.88090 | 84 ft | 13 kts | 315° |
| 2026-04-24 07:04 | 3.64259 | 98.88023 | 84 ft | 14 kts | 316° |
| 2026-04-24 07:04 | 3.64271 | 98.87936 | 84 ft | 14 kts | 244° |
| 2026-04-24 07:04 | 3.64295 | 98.87859 | 84 ft | 9 kts | 282° |
| 2026-04-24 07:05 | 3.64260 | 98.87800 | 84 ft | 10 kts | 225° |
| 2026-04-24 07:05 | 3.64202 | 98.87740 | 84 ft | 13 kts | 225° |
| 2026-04-24 07:05 | 3.64128 | 98.87667 | 84 ft | 15 kts | 225° |
| 2026-04-24 07:05 | 3.64052 | 98.87590 | 84 ft | 15 kts | 225° |
| 2026-04-24 07:06 | 3.63971 | 98.87512 | 84 ft | 16 kts | 224° |
| 2026-04-24 07:06 | 3.63889 | 98.87433 | 84 ft | 16 kts | 225° |
| 2026-04-24 07:06 | 3.63806 | 98.87350 | 84 ft | 17 kts | 225° |
| 2026-04-24 07:06 | 3.63720 | 98.87265 | 84 ft | 17 kts | 224° |
| 2026-04-24 07:07 | 3.63634 | 98.87180 | 84 ft | 17 kts | 225° |
| 2026-04-24 07:07 | 3.63546 | 98.87092 | 84 ft | 17 kts | 225° |
| 2026-04-24 07:07 | 3.63378 | 98.86923 | 84 ft | 18 kts | 225° |
| 2026-04-24 07:08 | 3.63288 | 98.86832 | 84 ft | 18 kts | 225° |
| 2026-04-24 07:08 | 3.63198 | 98.86742 | 84 ft | 18 kts | 225° |
| 2026-04-24 07:08 | 3.63107 | 98.86650 | 84 ft | 18 kts | 225° |
| 2026-04-24 07:08 | 3.63015 | 98.86558 | 84 ft | 18 kts | 225° |
| 2026-04-24 07:09 | 3.62925 | 98.86466 | 84 ft | 18 kts | 225° |
| 2026-04-24 07:09 | 3.62832 | 98.86374 | 84 ft | 18 kts | 225° |
| 2026-04-24 07:09 | 3.62738 | 98.86280 | 84 ft | 18 kts | 225° |
| 2026-04-24 07:09 | 3.62645 | 98.86188 | 84 ft | 18 kts | 225° |
| 2026-04-24 07:10 | 3.62551 | 98.86095 | 84 ft | 19 kts | 224° |
| 2026-04-24 07:10 | 3.62506 | 98.85990 | 84 ft | 13 kts | 276° |
| 2026-04-24 07:10 | 3.62559 | 98.85915 | 84 ft | 14 kts | 331° |
| 2026-04-24 07:10 | 3.62648 | 98.85931 | 84 ft | 7 kts | 45° |
| 2026-04-24 07:11 | 3.62649 | 98.85932 | 84 ft | 0 kts | 45° |
| 2026-04-24 07:11 | 3.62710 | 98.85992 | 84 ft | 41 kts | 43° |
| 2026-04-24 07:11 | 3.63104 | 98.86382 | 84 ft | 113 kts | 45° |
| 2026-04-24 07:11 | 3.63806 | 98.87076 | 91 ft | 168 kts | 43° |
| 2026-04-24 07:12 | 3.64667 | 98.87924 | 631 ft | 173 kts | 44° |
| 2026-04-24 07:12 | 3.65634 | 98.88483 | 1455 ft | 165 kts | 7° |
| 2026-04-24 07:12 | 3.67677 | 98.87335 | 2375 ft | 184 kts | 311° |
| 2026-04-24 07:13 | 3.68549 | 98.86304 | 2668 ft | 201 kts | 310° |
| 2026-04-24 07:13 | 3.69494 | 98.85186 | 2987 ft | 217 kts | 310° |
| 2026-04-24 07:13 | 3.70524 | 98.83993 | 3281 ft | 236 kts | 311° |
| 2026-04-24 07:13 | 3.71658 | 98.82702 | 3572 ft | 256 kts | 311° |
| 2026-04-24 07:14 | 3.72888 | 98.81313 | 3985 ft | 273 kts | 311° |
| 2026-04-24 07:14 | 3.74148 | 98.79897 | 4648 ft | 278 kts | 312° |
| 2026-04-24 07:14 | 3.75457 | 98.78431 | 5386 ft | 280 kts | 312° |
| 2026-04-24 07:14 | 3.76766 | 98.76966 | 6078 ft | 283 kts | 312° |
| 2026-04-24 07:15 | 3.78077 | 98.75499 | 6749 ft | 286 kts | 312° |
| 2026-04-24 07:15 | 3.79405 | 98.74012 | 7420 ft | 289 kts | 312° |
| 2026-04-24 07:15 | 3.80747 | 98.72505 | 8080 ft | 292 kts | 310° |
| 2026-04-24 07:15 | 3.81937 | 98.70848 | 8728 ft | 295 kts | 300° |
| 2026-04-24 07:16 | 3.82826 | 98.68974 | 9375 ft | 298 kts | 292° |
| 2026-04-24 07:16 | 3.83574 | 98.67058 | 9998 ft | 300 kts | 290° |
| 2026-04-24 07:16 | 3.84330 | 98.65060 | 10499 ft | 308 kts | 290° |
| 2026-04-24 07:16 | 3.85109 | 98.63003 | 10768 ft | 324 kts | 290° |
| 2026-04-24 07:17 | 3.85922 | 98.60873 | 11032 ft | 338 kts | 290° |
| 2026-04-24 07:17 | 3.86790 | 98.58612 | 11292 ft | 353 kts | 290° |
| 2026-04-24 07:17 | 3.87694 | 98.56265 | 11545 ft | 367 kts | 290° |
| 2026-04-24 07:17 | 3.88629 | 98.53843 | 11784 ft | 381 kts | 290° |
| 2026-04-24 07:18 | 3.89602 | 98.51333 | 12166 ft | 389 kts | 290° |
| 2026-04-24 07:18 | 3.90592 | 98.48780 | 12732 ft | 392 kts | 290° |
| 2026-04-24 07:18 | 3.91576 | 98.46244 | 13273 ft | 395 kts | 290° |
| 2026-04-24 07:18 | 3.92584 | 98.43644 | 13788 ft | 400 kts | 290° |
| 2026-04-24 07:19 | 3.93590 | 98.41045 | 14292 ft | 404 kts | 290° |
| 2026-04-24 07:19 | 3.94604 | 98.38431 | 14794 ft | 407 kts | 291° |
| 2026-04-24 07:19 | 3.95643 | 98.35748 | 15291 ft | 411 kts | 291° |
| 2026-04-24 07:19 | 3.96677 | 98.33075 | 15774 ft | 415 kts | 290° |
| 2026-04-24 07:20 | 3.97712 | 98.30389 | 16248 ft | 419 kts | 290° |
| 2026-04-24 07:20 | 3.98772 | 98.27640 | 16723 ft | 423 kts | 290° |
| 2026-04-24 07:20 | 3.99833 | 98.24885 | 17187 ft | 426 kts | 291° |
| 2026-04-24 07:20 | 4.00910 | 98.22092 | 17646 ft | 430 kts | 291° |
| 2026-04-24 07:21 | 4.01988 | 98.19304 | 18094 ft | 434 kts | 291° |
| 2026-04-24 07:21 | 4.03090 | 98.16459 | 18550 ft | 437 kts | 291° |
| 2026-04-24 07:21 | 4.04188 | 98.13625 | 19034 ft | 439 kts | 291° |
| 2026-04-24 07:21 | 4.05299 | 98.10761 | 19531 ft | 441 kts | 290° |
| 2026-04-24 07:22 | 4.06409 | 98.07899 | 20026 ft | 443 kts | 290° |
| 2026-04-24 07:22 | 4.07515 | 98.05048 | 20513 ft | 444 kts | 290° |
| 2026-04-24 07:22 | 4.08647 | 98.02127 | 20977 ft | 447 kts | 290° |
| 2026-04-24 07:22 | 4.09762 | 97.99247 | 21427 ft | 448 kts | 290° |
| 2026-04-24 07:23 | 4.10905 | 97.96305 | 21882 ft | 450 kts | 290° |
| 2026-04-24 07:23 | 4.12053 | 97.93373 | 22311 ft | 452 kts | 290° |
| 2026-04-24 07:23 | 4.13183 | 97.90480 | 22715 ft | 454 kts | 290° |
| 2026-04-24 07:23 | 4.14343 | 97.87500 | 23113 ft | 455 kts | 290° |
| 2026-04-24 07:24 | 4.15479 | 97.84571 | 23487 ft | 457 kts | 290° |
| 2026-04-24 07:24 | 4.16633 | 97.81594 | 23851 ft | 459 kts | 290° |
| 2026-04-24 07:24 | 4.17800 | 97.78580 | 24206 ft | 461 kts | 290° |
| 2026-04-24 07:24 | 4.18950 | 97.75609 | 24538 ft | 463 kts | 290° |
| 2026-04-24 07:25 | 4.20119 | 97.72593 | 24859 ft | 465 kts | 290° |
| 2026-04-24 07:25 | 4.21299 | 97.69550 | 25169 ft | 467 kts | 290° |
| 2026-04-24 07:25 | 4.22482 | 97.66499 | 25468 ft | 469 kts | 290° |
| 2026-04-24 07:25 | 4.23654 | 97.63476 | 25809 ft | 470 kts | 290° |
| 2026-04-24 07:26 | 4.24841 | 97.60414 | 26235 ft | 468 kts | 290° |
| 2026-04-24 07:26 | 4.26019 | 97.57372 | 26668 ft | 466 kts | 290° |
| 2026-04-24 07:26 | 4.27190 | 97.54349 | 27066 ft | 465 kts | 290° |
| 2026-04-24 07:26 | 4.28362 | 97.51321 | 27446 ft | 464 kts | 290° |
| 2026-04-24 07:27 | 4.29515 | 97.48341 | 27808 ft | 463 kts | 290° |
| 2026-04-24 07:27 | 4.30678 | 97.45338 | 28161 ft | 462 kts | 290° |
| 2026-04-24 07:27 | 4.31838 | 97.42341 | 28504 ft | 461 kts | 290° |
| 2026-04-24 07:27 | 4.33004 | 97.39328 | 28842 ft | 461 kts | 290° |
| 2026-04-24 07:28 | 4.34160 | 97.36341 | 29171 ft | 460 kts | 290° |
| 2026-04-24 07:28 | 4.35313 | 97.33355 | 29497 ft | 459 kts | 290° |
| 2026-04-24 07:28 | 4.36461 | 97.30375 | 29824 ft | 458 kts | 290° |
| 2026-04-24 07:28 | 4.37613 | 97.27389 | 30137 ft | 458 kts | 290° |
| 2026-04-24 07:29 | 4.38896 | 97.24503 | 30415 ft | 458 kts | 297° |
| 2026-04-24 07:29 | 4.40570 | 97.21783 | 30699 ft | 458 kts | 306° |
| 2026-04-24 07:29 | 4.42591 | 97.19334 | 30982 ft | 457 kts | 314° |
| 2026-04-24 07:29 | 4.44933 | 97.17181 | 31264 ft | 457 kts | 322° |
| 2026-04-24 07:30 | 4.47530 | 97.15382 | 31538 ft | 456 kts | 329° |
| 2026-04-24 07:30 | 4.50317 | 97.13846 | 31815 ft | 455 kts | 332° |
| 2026-04-24 07:30 | 4.53120 | 97.12387 | 32080 ft | 454 kts | 333° |
| 2026-04-24 07:30 | 4.55893 | 97.10954 | 32295 ft | 454 kts | 333° |
| 2026-04-24 07:31 | 4.58725 | 97.09481 | 32496 ft | 454 kts | 333° |
| 2026-04-24 07:31 | 4.61504 | 97.08025 | 32677 ft | 455 kts | 332° |
| 2026-04-24 07:31 | 4.64304 | 97.06551 | 32852 ft | 456 kts | 332° |
| 2026-04-24 07:31 | 4.67123 | 97.05063 | 33043 ft | 456 kts | 332° |
| 2026-04-24 07:32 | 4.69893 | 97.03599 | 33219 ft | 456 kts | 332° |
| 2026-04-24 07:32 | 4.72700 | 97.02114 | 33378 ft | 457 kts | 332° |
| 2026-04-24 07:32 | 4.75483 | 97.00571 | 33525 ft | 457 kts | 329° |
| 2026-04-24 07:32 | 4.78172 | 96.98857 | 33674 ft | 458 kts | 326° |
| 2026-04-24 07:33 | 4.80757 | 96.96960 | 33791 ft | 459 kts | 322° |
| 2026-04-24 07:33 | 4.83178 | 96.94924 | 33796 ft | 459 kts | 318° |
| 2026-04-24 07:33 | 4.87624 | 96.90363 | 33803 ft | 459 kts | 310° |
| 2026-04-24 07:34 | 4.91652 | 96.85408 | 33805 ft | 459 kts | 309° |
| 2026-04-24 07:34 | 4.95646 | 96.80430 | 33805 ft | 459 kts | 309° |
| 2026-04-24 07:35 | 4.99661 | 96.75441 | 33806 ft | 459 kts | 309° |
| 2026-04-24 07:35 | 5.03655 | 96.70487 | 33806 ft | 458 kts | 309° |
| 2026-04-24 07:36 | 5.07689 | 96.65487 | 33806 ft | 458 kts | 309° |
| 2026-04-24 07:36 | 5.11698 | 96.60525 | 33806 ft | 458 kts | 309° |
| 2026-04-24 07:37 | 5.15708 | 96.55590 | 33806 ft | 458 kts | 309° |
| 2026-04-24 07:37 | 5.19738 | 96.50610 | 33806 ft | 458 kts | 309° |
| 2026-04-24 07:38 | 5.23729 | 96.45667 | 33806 ft | 458 kts | 309° |
| 2026-04-24 07:38 | 5.27722 | 96.40713 | 33806 ft | 458 kts | 309° |
| 2026-04-24 07:39 | 5.31725 | 96.35749 | 33806 ft | 458 kts | 309° |
| 2026-04-24 07:39 | 5.35711 | 96.30782 | 33806 ft | 458 kts | 309° |
| 2026-04-24 07:40 | 5.39724 | 96.25777 | 33806 ft | 458 kts | 309° |
| 2026-04-24 07:40 | 5.43701 | 96.20830 | 33806 ft | 458 kts | 309° |
| 2026-04-24 07:41 | 5.47715 | 96.15842 | 33806 ft | 458 kts | 309° |
| 2026-04-24 07:41 | 5.51715 | 96.10872 | 33806 ft | 457 kts | 309° |
| 2026-04-24 07:42 | 5.55711 | 96.05905 | 33806 ft | 457 kts | 309° |
| 2026-04-24 07:42 | 5.59718 | 96.00925 | 33806 ft | 457 kts | 309° |
| 2026-04-24 07:43 | 5.63696 | 95.95978 | 33806 ft | 457 kts | 309° |
| 2026-04-24 07:43 | 5.67697 | 95.91003 | 33806 ft | 457 kts | 309° |
| 2026-04-24 07:44 | 5.71684 | 95.86045 | 33806 ft | 457 kts | 309° |
| 2026-04-24 07:44 | 5.75680 | 95.81074 | 33806 ft | 457 kts | 309° |
| 2026-04-24 07:45 | 5.79668 | 95.76112 | 33806 ft | 457 kts | 309° |
| 2026-04-24 07:45 | 5.83647 | 95.71159 | 33806 ft | 457 kts | 309° |
| 2026-04-24 07:46 | 5.87656 | 95.66167 | 33806 ft | 457 kts | 309° |
| 2026-04-24 07:46 | 5.91623 | 95.61229 | 33806 ft | 457 kts | 309° |
| 2026-04-24 07:47 | 5.95621 | 95.56249 | 33806 ft | 457 kts | 309° |
| 2026-04-24 07:47 | 5.99475 | 95.51186 | 33805 ft | 457 kts | 305° |
| 2026-04-24 07:48 | 6.02821 | 95.45709 | 33806 ft | 458 kts | 300° |
| 2026-04-24 07:48 | 6.05879 | 95.40153 | 33806 ft | 458 kts | 300° |
| 2026-04-24 07:49 | 6.08964 | 95.34541 | 33805 ft | 457 kts | 299° |
| 2026-04-24 07:49 | 6.12038 | 95.28962 | 33806 ft | 457 kts | 300° |
| 2026-04-24 07:50 | 6.15122 | 95.23396 | 33806 ft | 457 kts | 300° |
| 2026-04-24 07:50 | 6.18206 | 95.17810 | 33806 ft | 457 kts | 300° |
| 2026-04-24 07:51 | 6.21291 | 95.12212 | 33806 ft | 457 kts | 300° |
| 2026-04-24 07:51 | 6.24372 | 95.06625 | 33806 ft | 457 kts | 300° |
| 2026-04-24 07:52 | 6.27450 | 95.01083 | 33806 ft | 457 kts | 300° |
| 2026-04-24 07:52 | 6.30551 | 94.95500 | 33806 ft | 457 kts | 300° |
| 2026-04-24 07:53 | 6.33647 | 94.89920 | 33806 ft | 457 kts | 300° |
| 2026-04-24 07:53 | 6.36732 | 94.84360 | 33806 ft | 457 kts | 300° |
| 2026-04-24 07:54 | 6.39811 | 94.78808 | 33806 ft | 456 kts | 300° |
| 2026-04-24 07:54 | 6.42909 | 94.73219 | 33806 ft | 456 kts | 300° |
| 2026-04-24 07:55 | 6.45986 | 94.67666 | 33806 ft | 456 kts | 300° |
| 2026-04-24 07:55 | 6.49076 | 94.62087 | 33806 ft | 456 kts | 300° |
| 2026-04-24 07:56 | 6.52188 | 94.56467 | 33806 ft | 456 kts | 300° |
| 2026-04-24 07:56 | 6.55255 | 94.50924 | 33806 ft | 456 kts | 300° |
| 2026-04-24 07:57 | 6.58333 | 94.45361 | 33806 ft | 456 kts | 300° |
| 2026-04-24 07:57 | 6.61271 | 94.39691 | 33806 ft | 457 kts | 296° |
| 2026-04-24 07:58 | 6.63884 | 94.33897 | 33806 ft | 457 kts | 295° |
| 2026-04-24 07:58 | 6.66477 | 94.28074 | 33806 ft | 456 kts | 295° |
| 2026-04-24 07:59 | 6.69084 | 94.22235 | 33806 ft | 457 kts | 295° |
| 2026-04-24 07:59 | 6.71673 | 94.16451 | 33806 ft | 457 kts | 295° |
| 2026-04-24 08:00 | 6.74293 | 94.10605 | 33806 ft | 457 kts | 295° |
| 2026-04-24 08:00 | 6.76896 | 94.04795 | 33806 ft | 457 kts | 295° |
| 2026-04-24 08:01 | 6.79496 | 93.98992 | 33806 ft | 457 kts | 295° |
| 2026-04-24 08:01 | 6.82117 | 93.93137 | 33806 ft | 456 kts | 295° |
| 2026-04-24 08:02 | 6.84717 | 93.87331 | 33806 ft | 456 kts | 295° |
| 2026-04-24 08:02 | 6.87320 | 93.81514 | 33806 ft | 456 kts | 295° |
| 2026-04-24 08:03 | 6.89922 | 93.75699 | 33806 ft | 456 kts | 295° |
| 2026-04-24 08:03 | 6.92525 | 93.69880 | 33806 ft | 456 kts | 295° |
| 2026-04-24 08:04 | 6.95123 | 93.64063 | 33806 ft | 456 kts | 295° |
| 2026-04-24 08:04 | 6.97727 | 93.58237 | 33806 ft | 456 kts | 295° |
| 2026-04-24 08:05 | 7.00325 | 93.52419 | 33806 ft | 456 kts | 295° |
| 2026-04-24 08:05 | 7.02925 | 93.46597 | 33806 ft | 456 kts | 295° |
| 2026-04-24 08:06 | 7.05517 | 93.40790 | 33806 ft | 456 kts | 295° |
| 2026-04-24 08:06 | 7.08107 | 93.34984 | 33807 ft | 456 kts | 295° |
| 2026-04-24 08:07 | 7.10711 | 93.29125 | 33811 ft | 456 kts | 295° |
| 2026-04-24 08:07 | 7.13327 | 93.23302 | 33814 ft | 456 kts | 295° |
| 2026-04-24 08:08 | 7.15927 | 93.17497 | 33819 ft | 456 kts | 295° |
| 2026-04-24 08:09 | 7.19815 | 93.08780 | 33825 ft | 456 kts | 295° |
| 2026-04-24 08:09 | 7.22420 | 93.02930 | 33822 ft | 456 kts | 295° |
| 2026-04-24 08:10 | 7.25007 | 92.97118 | 33813 ft | 456 kts | 295° |
| 2026-04-24 08:10 | 7.27602 | 92.91283 | 33809 ft | 455 kts | 295° |
| 2026-04-24 08:11 | 7.30173 | 92.85500 | 33807 ft | 455 kts | 295° |
| 2026-04-24 08:11 | 7.32770 | 92.79656 | 33806 ft | 455 kts | 295° |
| 2026-04-24 08:12 | 7.35351 | 92.73848 | 33806 ft | 455 kts | 295° |
| 2026-04-24 08:12 | 7.37925 | 92.68052 | 33806 ft | 455 kts | 295° |
| 2026-04-24 08:13 | 7.40495 | 92.62263 | 33806 ft | 454 kts | 295° |
| 2026-04-24 08:13 | 7.43084 | 92.56428 | 33806 ft | 454 kts | 295° |
| 2026-04-24 08:14 | 7.45663 | 92.50613 | 33806 ft | 454 kts | 295° |
| 2026-04-24 08:14 | 7.48219 | 92.44847 | 33806 ft | 453 kts | 295° |
| 2026-04-24 08:15 | 7.50800 | 92.39023 | 33806 ft | 453 kts | 295° |
| 2026-04-24 08:15 | 7.53355 | 92.33254 | 33806 ft | 453 kts | 295° |
| 2026-04-24 08:16 | 7.55924 | 92.27422 | 33806 ft | 453 kts | 295° |
| 2026-04-24 08:16 | 7.58479 | 92.21632 | 33806 ft | 453 kts | 295° |
| 2026-04-24 08:17 | 7.61033 | 92.15857 | 33806 ft | 452 kts | 295° |
| 2026-04-24 08:17 | 7.63588 | 92.10075 | 33806 ft | 452 kts | 295° |
| 2026-04-24 08:18 | 7.66141 | 92.04303 | 33806 ft | 452 kts | 295° |
| 2026-04-24 08:18 | 7.68706 | 91.98500 | 33806 ft | 452 kts | 295° |
| 2026-04-24 08:19 | 7.71251 | 91.92738 | 33806 ft | 452 kts | 295° |
| 2026-04-24 08:19 | 7.73802 | 91.86962 | 33806 ft | 452 kts | 295° |
| 2026-04-24 08:20 | 7.76359 | 91.81169 | 33806 ft | 452 kts | 295° |
| 2026-04-24 08:20 | 7.78904 | 91.75402 | 33806 ft | 452 kts | 295° |
| 2026-04-24 08:21 | 7.81468 | 91.69591 | 33875 ft | 453 kts | 295° |
| 2026-04-24 08:21 | 7.82754 | 91.66685 | 34076 ft | 452 kts | 295° |
| 2026-04-24 08:21 | 7.84058 | 91.63811 | 34299 ft | 451 kts | 296° |
| 2026-04-24 08:21 | 7.85369 | 91.60948 | 34489 ft | 450 kts | 296° |
| 2026-04-24 08:22 | 7.86666 | 91.58122 | 34647 ft | 450 kts | 296° |
| 2026-04-24 08:22 | 7.87984 | 91.55248 | 34788 ft | 450 kts | 296° |
| 2026-04-24 08:22 | 7.89297 | 91.52379 | 34934 ft | 450 kts | 296° |
| 2026-04-24 08:22 | 7.90615 | 91.49498 | 35085 ft | 449 kts | 296° |
| 2026-04-24 08:23 | 7.91920 | 91.46644 | 35229 ft | 449 kts | 296° |
| 2026-04-24 08:23 | 7.93211 | 91.43817 | 35365 ft | 449 kts | 296° |
| 2026-04-24 08:23 | 7.94518 | 91.40958 | 35490 ft | 449 kts | 296° |
| 2026-04-24 08:23 | 7.95824 | 91.38098 | 35609 ft | 449 kts | 296° |
| 2026-04-24 08:24 | 7.97135 | 91.35226 | 35731 ft | 449 kts | 295° |
| 2026-04-24 08:24 | 7.99738 | 91.29501 | 35799 ft | 449 kts | 295° |
| 2026-04-24 08:25 | 8.02327 | 91.23804 | 35805 ft | 449 kts | 295° |
| 2026-04-24 08:25 | 8.04930 | 91.18085 | 35806 ft | 448 kts | 295° |
| 2026-04-24 08:26 | 8.07530 | 91.12376 | 35808 ft | 449 kts | 295° |
| 2026-04-24 08:26 | 8.10138 | 91.06650 | 35812 ft | 448 kts | 295° |
| 2026-04-24 08:27 | 8.12763 | 91.00940 | 35818 ft | 448 kts | 295° |
| 2026-04-24 08:27 | 8.15367 | 90.95266 | 35823 ft | 448 kts | 295° |
| 2026-04-24 08:28 | 8.17980 | 90.89542 | 35829 ft | 448 kts | 295° |
| 2026-04-24 08:28 | 8.20584 | 90.83820 | 35832 ft | 448 kts | 295° |
| 2026-04-24 08:29 | 8.23176 | 90.78120 | 35833 ft | 448 kts | 295° |
| 2026-04-24 08:29 | 8.25765 | 90.72421 | 35833 ft | 448 kts | 295° |
| 2026-04-24 08:30 | 8.28369 | 90.66688 | 35831 ft | 448 kts | 295° |
| 2026-04-24 08:30 | 8.30948 | 90.61008 | 35819 ft | 448 kts | 295° |
| 2026-04-24 08:31 | 8.33543 | 90.55287 | 35812 ft | 448 kts | 295° |
| 2026-04-24 08:31 | 8.36134 | 90.49574 | 35808 ft | 448 kts | 294° |
| 2026-04-24 08:32 | 8.38721 | 90.43868 | 35807 ft | 448 kts | 294° |
| 2026-04-24 08:32 | 8.41312 | 90.38149 | 35806 ft | 448 kts | 294° |
| 2026-04-24 08:33 | 8.43894 | 90.32442 | 35806 ft | 448 kts | 294° |
| 2026-04-24 08:33 | 8.46485 | 90.26688 | 35806 ft | 448 kts | 294° |
| 2026-04-24 08:34 | 8.49060 | 90.20985 | 35806 ft | 448 kts | 294° |
| 2026-04-24 08:34 | 8.51646 | 90.15261 | 35806 ft | 448 kts | 294° |
| 2026-04-24 08:35 | 8.54237 | 90.09529 | 35806 ft | 448 kts | 294° |
| 2026-04-24 08:35 | 8.56814 | 90.03825 | 35806 ft | 448 kts | 294° |
| 2026-04-24 08:36 | 8.59412 | 89.98075 | 35806 ft | 448 kts | 294° |
| 2026-04-24 08:36 | 8.61992 | 89.92361 | 35806 ft | 448 kts | 294° |
| 2026-04-24 08:37 | 8.64564 | 89.86661 | 35806 ft | 448 kts | 294° |
| 2026-04-24 08:37 | 8.67144 | 89.80940 | 35806 ft | 448 kts | 294° |
| 2026-04-24 08:38 | 8.69725 | 89.75218 | 35806 ft | 448 kts | 294° |
| 2026-04-24 08:38 | 8.72317 | 89.69462 | 35806 ft | 448 kts | 294° |
| 2026-04-24 08:39 | 8.74889 | 89.63753 | 35806 ft | 447 kts | 294° |
| 2026-04-24 08:39 | 8.77467 | 89.58026 | 35806 ft | 447 kts | 294° |
| 2026-04-24 08:40 | 8.80025 | 89.52339 | 35806 ft | 447 kts | 294° |
| 2026-04-24 08:40 | 8.82612 | 89.46588 | 35806 ft | 447 kts | 294° |
| 2026-04-24 08:41 | 8.85187 | 89.40861 | 35806 ft | 447 kts | 294° |
| 2026-04-24 08:41 | 8.87751 | 89.35153 | 35806 ft | 447 kts | 294° |
| 2026-04-24 08:42 | 8.90303 | 89.29448 | 35806 ft | 447 kts | 293° |
| 2026-04-24 08:42 | 8.92870 | 89.23711 | 35806 ft | 447 kts | 293° |
| 2026-04-24 08:43 | 8.95427 | 89.18004 | 35806 ft | 447 kts | 293° |
| 2026-04-24 08:43 | 8.98004 | 89.12257 | 35806 ft | 447 kts | 293° |
| 2026-04-24 08:44 | 9.00565 | 89.06542 | 35806 ft | 447 kts | 293° |
| 2026-04-24 08:44 | 9.03136 | 89.00801 | 35806 ft | 447 kts | 293° |
| 2026-04-24 08:45 | 9.05690 | 88.95100 | 35806 ft | 447 kts | 293° |
| 2026-04-24 08:45 | 9.08258 | 88.89362 | 35806 ft | 447 kts | 293° |
| 2026-04-24 08:46 | 9.10831 | 88.83620 | 35806 ft | 447 kts | 293° |
| 2026-04-24 08:46 | 9.13410 | 88.77920 | 35806 ft | 447 kts | 293° |
| 2026-04-24 08:47 | 9.15987 | 88.72189 | 35806 ft | 447 kts | 293° |
| 2026-04-24 08:47 | 9.18554 | 88.66454 | 35806 ft | 447 kts | 293° |
| 2026-04-24 08:48 | 9.21098 | 88.60763 | 35806 ft | 447 kts | 292° |
| 2026-04-24 08:48 | 9.23668 | 88.55003 | 35806 ft | 447 kts | 292° |
| 2026-04-24 08:49 | 9.26217 | 88.49289 | 35806 ft | 447 kts | 292° |
| 2026-04-24 08:49 | 9.28772 | 88.43559 | 35806 ft | 447 kts | 292° |
| 2026-04-24 08:50 | 9.31326 | 88.37826 | 35806 ft | 447 kts | 292° |
| 2026-04-24 08:50 | 9.33881 | 88.32082 | 35806 ft | 447 kts | 292° |
| 2026-04-24 08:51 | 9.36409 | 88.26376 | 35806 ft | 447 kts | 292° |
| 2026-04-24 08:51 | 9.38958 | 88.20635 | 35806 ft | 447 kts | 292° |
| 2026-04-24 08:52 | 9.41506 | 88.14901 | 35806 ft | 446 kts | 292° |
| 2026-04-24 08:52 | 9.44049 | 88.09177 | 35806 ft | 446 kts | 292° |
| 2026-04-24 08:53 | 9.46588 | 88.03462 | 35806 ft | 446 kts | 292° |
| 2026-04-24 08:53 | 9.49127 | 87.97745 | 35806 ft | 446 kts | 292° |
| 2026-04-24 08:54 | 9.51666 | 87.92021 | 35806 ft | 446 kts | 292° |
| 2026-04-24 08:54 | 9.54218 | 87.86268 | 35806 ft | 446 kts | 292° |
| 2026-04-24 08:55 | 9.56752 | 87.80550 | 35806 ft | 446 kts | 292° |
| 2026-04-24 08:55 | 9.59280 | 87.74845 | 35806 ft | 446 kts | 292° |
| 2026-04-24 08:56 | 9.61818 | 87.69114 | 35806 ft | 446 kts | 292° |
| 2026-04-24 08:56 | 9.64353 | 87.63385 | 35806 ft | 446 kts | 292° |
| 2026-04-24 08:57 | 9.66878 | 87.57678 | 35806 ft | 446 kts | 292° |
| 2026-04-24 08:57 | 9.69414 | 87.51942 | 35806 ft | 446 kts | 292° |
| 2026-04-24 08:58 | 9.71940 | 87.46225 | 35806 ft | 446 kts | 292° |
| 2026-04-24 08:58 | 9.74468 | 87.40501 | 35806 ft | 445 kts | 292° |
| 2026-04-24 08:59 | 9.77008 | 87.34752 | 35806 ft | 445 kts | 292° |
| 2026-04-24 08:59 | 9.79593 | 87.29067 | 35806 ft | 445 kts | 292° |
| 2026-04-24 09:00 | 9.82211 | 87.23362 | 35806 ft | 445 kts | 292° |
| 2026-04-24 09:00 | 9.84817 | 87.17678 | 35806 ft | 445 kts | 292° |
| 2026-04-24 09:01 | 9.87426 | 87.11983 | 35806 ft | 445 kts | 292° |
| 2026-04-24 09:01 | 9.90014 | 87.06332 | 35806 ft | 445 kts | 292° |
| 2026-04-24 09:02 | 9.92633 | 87.00607 | 35806 ft | 445 kts | 292° |
| 2026-04-24 09:02 | 9.95225 | 86.94939 | 35806 ft | 445 kts | 292° |
| 2026-04-24 09:03 | 9.97823 | 86.89256 | 35806 ft | 444 kts | 292° |
| 2026-04-24 09:03 | 10.00422 | 86.83566 | 35807 ft | 444 kts | 292° |
| 2026-04-24 09:04 | 10.03004 | 86.77916 | 35806 ft | 443 kts | 292° |
| 2026-04-24 09:04 | 10.05598 | 86.72226 | 35806 ft | 442 kts | 292° |
| 2026-04-24 09:05 | 10.08174 | 86.66575 | 35806 ft | 442 kts | 292° |
| 2026-04-24 09:05 | 10.10745 | 86.60941 | 35805 ft | 442 kts | 292° |
| 2026-04-24 09:06 | 10.13346 | 86.55299 | 35806 ft | 442 kts | 292° |
| 2026-04-24 09:06 | 10.15950 | 86.49618 | 35806 ft | 442 kts | 292° |
| 2026-04-24 09:07 | 10.18516 | 86.43993 | 35806 ft | 442 kts | 292° |
| 2026-04-24 09:07 | 10.22380 | 86.35503 | 35806 ft | 442 kts | 292° |
| 2026-04-24 09:08 | 10.24955 | 86.29818 | 35806 ft | 442 kts | 292° |
| 2026-04-24 09:08 | 10.27524 | 86.24141 | 35806 ft | 442 kts | 292° |
| 2026-04-24 09:09 | 10.30092 | 86.18477 | 35806 ft | 442 kts | 292° |
| 2026-04-24 09:09 | 10.32661 | 86.12812 | 35806 ft | 442 kts | 292° |
| 2026-04-24 09:10 | 10.35235 | 86.07130 | 35806 ft | 440 kts | 292° |
| 2026-04-24 09:10 | 10.37796 | 86.01483 | 35806 ft | 440 kts | 292° |
| 2026-04-24 09:11 | 10.40350 | 85.95850 | 35806 ft | 440 kts | 292° |
| 2026-04-24 09:11 | 10.42917 | 85.90178 | 35806 ft | 440 kts | 292° |
| 2026-04-24 09:12 | 10.45469 | 85.84536 | 35806 ft | 440 kts | 292° |
| 2026-04-24 09:12 | 10.48009 | 85.78920 | 35806 ft | 440 kts | 292° |
| 2026-04-24 09:13 | 10.50569 | 85.73255 | 35807 ft | 440 kts | 292° |
| 2026-04-24 09:13 | 10.53125 | 85.67600 | 35806 ft | 440 kts | 292° |
| 2026-04-24 09:14 | 10.55659 | 85.61983 | 35806 ft | 440 kts | 292° |
| 2026-04-24 09:14 | 10.58220 | 85.56308 | 35806 ft | 440 kts | 292° |
| 2026-04-24 09:15 | 10.60767 | 85.50664 | 35806 ft | 439 kts | 292° |
| 2026-04-24 09:15 | 10.63311 | 85.45018 | 35806 ft | 439 kts | 292° |
| 2026-04-24 09:16 | 10.65836 | 85.39412 | 35806 ft | 439 kts | 292° |
| 2026-04-24 09:16 | 10.68381 | 85.33757 | 35808 ft | 439 kts | 291° |
| 2026-04-24 09:17 | 10.70910 | 85.28109 | 35806 ft | 438 kts | 291° |
| 2026-04-24 09:17 | 10.73444 | 85.22462 | 35807 ft | 439 kts | 291° |
| 2026-04-24 09:18 | 10.75963 | 85.16851 | 35806 ft | 438 kts | 291° |
| 2026-04-24 09:18 | 10.78502 | 85.11197 | 35802 ft | 439 kts | 291° |
| 2026-04-24 09:19 | 10.81028 | 85.05568 | 35798 ft | 439 kts | 291° |
| 2026-04-24 09:19 | 10.83571 | 84.99902 | 35794 ft | 438 kts | 291° |
| 2026-04-24 09:20 | 10.86505 | 84.93356 | 35788 ft | 438 kts | 291° |
| 2026-04-24 09:20 | 10.88618 | 84.88641 | 35785 ft | 438 kts | 291° |
| 2026-04-24 09:21 | 10.91140 | 84.83009 | 35782 ft | 438 kts | 291° |
| 2026-04-24 09:21 | 10.93662 | 84.77377 | 35780 ft | 438 kts | 291° |
| 2026-04-24 09:22 | 10.96186 | 84.71735 | 35780 ft | 438 kts | 291° |
| 2026-04-24 09:22 | 10.98709 | 84.66092 | 35779 ft | 438 kts | 291° |
| 2026-04-24 09:23 | 11.01225 | 84.60459 | 35779 ft | 438 kts | 291° |
| 2026-04-24 09:23 | 11.03749 | 84.54809 | 35779 ft | 438 kts | 291° |
| 2026-04-24 09:24 | 11.06265 | 84.49171 | 35779 ft | 438 kts | 291° |
| 2026-04-24 09:24 | 11.08778 | 84.43536 | 35779 ft | 437 kts | 291° |
| 2026-04-24 09:25 | 11.11302 | 84.37897 | 35779 ft | 438 kts | 291° |
| 2026-04-24 09:25 | 11.13828 | 84.32287 | 35780 ft | 437 kts | 291° |
| 2026-04-24 09:26 | 11.16336 | 84.26659 | 35780 ft | 437 kts | 291° |
| 2026-04-24 09:26 | 11.18851 | 84.21004 | 35779 ft | 436 kts | 291° |
| 2026-04-24 09:27 | 11.21342 | 84.15404 | 35780 ft | 436 kts | 291° |
| 2026-04-24 09:27 | 11.23847 | 84.09768 | 35780 ft | 436 kts | 291° |
| 2026-04-24 09:28 | 11.26346 | 84.04142 | 35779 ft | 436 kts | 291° |
| 2026-04-24 09:28 | 11.28831 | 83.98545 | 35779 ft | 436 kts | 290° |
| 2026-04-24 09:29 | 11.31333 | 83.92909 | 35780 ft | 436 kts | 290° |
| 2026-04-24 09:29 | 11.33824 | 83.87289 | 35784 ft | 436 kts | 290° |
| 2026-04-24 09:30 | 11.36736 | 83.80714 | 35790 ft | 436 kts | 290° |
| 2026-04-24 09:30 | 11.38812 | 83.76027 | 35794 ft | 436 kts | 290° |
| 2026-04-24 09:31 | 11.41296 | 83.70412 | 35797 ft | 436 kts | 290° |
| 2026-04-24 09:31 | 11.43777 | 83.64803 | 35797 ft | 436 kts | 290° |
| 2026-04-24 09:32 | 11.46267 | 83.59170 | 35795 ft | 436 kts | 290° |
| 2026-04-24 09:32 | 11.48758 | 83.53530 | 35791 ft | 436 kts | 290° |
| 2026-04-24 09:33 | 11.51245 | 83.47897 | 35787 ft | 436 kts | 290° |
| 2026-04-24 09:33 | 11.53717 | 83.42291 | 35783 ft | 436 kts | 290° |
| 2026-04-24 09:34 | 11.56205 | 83.36645 | 35780 ft | 436 kts | 290° |
| 2026-04-24 09:34 | 11.58680 | 83.31021 | 35780 ft | 436 kts | 290° |
| 2026-04-24 09:35 | 11.61195 | 83.25423 | 35780 ft | 436 kts | 291° |
| 2026-04-24 09:35 | 11.63745 | 83.19786 | 35779 ft | 436 kts | 291° |
| 2026-04-24 09:36 | 11.66277 | 83.14180 | 35779 ft | 436 kts | 291° |
| 2026-04-24 09:36 | 11.68820 | 83.08543 | 35780 ft | 436 kts | 290° |
| 2026-04-24 09:37 | 11.71344 | 83.02943 | 35779 ft | 436 kts | 290° |
| 2026-04-24 09:37 | 11.73878 | 82.97317 | 35780 ft | 436 kts | 290° |
| 2026-04-24 09:38 | 11.76417 | 82.91675 | 35779 ft | 436 kts | 290° |
| 2026-04-24 09:38 | 11.78931 | 82.86084 | 35779 ft | 437 kts | 290° |
| 2026-04-24 09:39 | 11.81461 | 82.80455 | 35779 ft | 437 kts | 290° |
| 2026-04-24 09:39 | 11.83995 | 82.74816 | 35779 ft | 436 kts | 290° |
| 2026-04-24 09:40 | 11.86514 | 82.69205 | 35779 ft | 436 kts | 290° |
| 2026-04-24 09:40 | 11.89038 | 82.63580 | 35779 ft | 436 kts | 290° |
| 2026-04-24 09:41 | 11.91567 | 82.57942 | 35779 ft | 436 kts | 290° |
| 2026-04-24 09:41 | 11.94088 | 82.52312 | 35779 ft | 436 kts | 290° |
| 2026-04-24 09:42 | 11.96599 | 82.46706 | 35779 ft | 436 kts | 290° |
| 2026-04-24 09:42 | 11.99130 | 82.41050 | 35779 ft | 436 kts | 290° |
| 2026-04-24 09:43 | 12.01639 | 82.35442 | 35780 ft | 435 kts | 290° |
| 2026-04-24 09:43 | 12.04136 | 82.29840 | 35780 ft | 434 kts | 289° |
| 2026-04-24 09:44 | 12.06646 | 82.24202 | 35780 ft | 434 kts | 289° |
| 2026-04-24 09:44 | 12.09152 | 82.18580 | 35780 ft | 435 kts | 289° |
| 2026-04-24 09:45 | 12.11660 | 82.12986 | 35778 ft | 435 kts | 290° |
| 2026-04-24 09:45 | 12.14193 | 82.07363 | 35779 ft | 435 kts | 289° |
| 2026-04-24 09:46 | 12.16713 | 82.01733 | 35779 ft | 435 kts | 289° |
| 2026-04-24 09:46 | 12.19219 | 81.96114 | 35779 ft | 435 kts | 289° |
| 2026-04-24 09:47 | 12.21718 | 81.90502 | 35779 ft | 435 kts | 289° |
| 2026-04-24 09:47 | 12.24207 | 81.84907 | 35779 ft | 435 kts | 289° |
| 2026-04-24 09:48 | 12.26718 | 81.79258 | 35780 ft | 435 kts | 289° |
| 2026-04-24 09:48 | 12.29209 | 81.73649 | 35780 ft | 435 kts | 289° |
| 2026-04-24 09:49 | 12.31704 | 81.68026 | 35780 ft | 435 kts | 289° |
| 2026-04-24 09:49 | 12.34195 | 81.62410 | 35780 ft | 435 kts | 289° |
| 2026-04-24 09:50 | 12.36682 | 81.56802 | 35780 ft | 434 kts | 289° |
| 2026-04-24 09:50 | 12.39173 | 81.51176 | 35779 ft | 434 kts | 289° |
| 2026-04-24 09:51 | 12.41670 | 81.45535 | 35779 ft | 434 kts | 289° |
| 2026-04-24 09:51 | 12.44152 | 81.39925 | 35779 ft | 435 kts | 289° |
| 2026-04-24 09:52 | 12.46636 | 81.34305 | 35781 ft | 435 kts | 289° |
| 2026-04-24 09:52 | 12.49125 | 81.28649 | 35780 ft | 435 kts | 289° |
| 2026-04-24 09:53 | 12.51608 | 81.23010 | 35780 ft | 435 kts | 289° |
| 2026-04-24 09:53 | 12.54093 | 81.17372 | 35779 ft | 435 kts | 289° |
| 2026-04-24 09:54 | 12.56586 | 81.11717 | 35779 ft | 435 kts | 289° |
| 2026-04-24 09:54 | 12.59068 | 81.06083 | 35779 ft | 435 kts | 289° |
| 2026-04-24 09:55 | 12.61545 | 81.00458 | 35779 ft | 435 kts | 289° |
| 2026-04-24 09:55 | 12.63969 | 80.94948 | 35779 ft | 435 kts | 289° |
| 2026-04-24 09:56 | 12.66464 | 80.89275 | 35779 ft | 435 kts | 289° |
| 2026-04-24 09:56 | 12.68938 | 80.83644 | 35779 ft | 435 kts | 289° |
| 2026-04-24 09:57 | 12.71424 | 80.77985 | 35780 ft | 435 kts | 289° |
| 2026-04-24 09:57 | 12.73911 | 80.72322 | 35779 ft | 435 kts | 289° |
| 2026-04-24 09:58 | 12.76391 | 80.66663 | 35779 ft | 436 kts | 289° |
| 2026-04-24 09:58 | 12.78870 | 80.61008 | 35779 ft | 436 kts | 289° |
| 2026-04-24 09:59 | 12.81358 | 80.55325 | 35779 ft | 436 kts | 289° |
| 2026-04-24 09:59 | 12.83843 | 80.49647 | 35779 ft | 436 kts | 289° |
| 2026-04-24 10:00 | 12.86311 | 80.44003 | 35779 ft | 436 kts | 289° |
| 2026-04-24 10:00 | 12.88790 | 80.38332 | 35779 ft | 436 kts | 289° |
| 2026-04-24 10:01 | 12.91264 | 80.32665 | 35780 ft | 435 kts | 288° |
| 2026-04-24 10:01 | 12.93727 | 80.27000 | 35780 ft | 435 kts | 288° |
| 2026-04-24 10:02 | 12.96209 | 80.21307 | 35780 ft | 435 kts | 289° |
| 2026-04-24 10:02 | 12.98720 | 80.15651 | 35781 ft | 437 kts | 291° |
| 2026-04-24 10:03 | 13.01571 | 80.10161 | 35780 ft | 438 kts | 293° |
| 2026-04-24 10:03 | 13.04505 | 80.04661 | 35780 ft | 438 kts | 293° |
| 2026-04-24 10:04 | 13.07425 | 79.99187 | 35780 ft | 438 kts | 292° |
| 2026-04-24 10:04 | 13.10360 | 79.93681 | 35778 ft | 438 kts | 292° |
| 2026-04-24 10:05 | 13.13303 | 79.88197 | 35779 ft | 438 kts | 292° |
| 2026-04-24 10:05 | 13.16225 | 79.82735 | 35779 ft | 438 kts | 292° |
| 2026-04-24 10:06 | 13.20606 | 79.74506 | 35780 ft | 437 kts | 292° |
| 2026-04-24 10:07 | 13.23506 | 79.69044 | 35780 ft | 437 kts | 292° |
| 2026-04-24 10:07 | 13.26402 | 79.63586 | 35780 ft | 437 kts | 292° |
| 2026-04-24 10:08 | 13.29317 | 79.58087 | 35780 ft | 436 kts | 292° |
| 2026-04-24 10:08 | 13.32202 | 79.52640 | 35780 ft | 436 kts | 292° |
| 2026-04-24 10:09 | 13.35109 | 79.47149 | 35780 ft | 436 kts | 292° |
| 2026-04-24 10:09 | 13.38006 | 79.41674 | 35780 ft | 436 kts | 292° |
| 2026-04-24 10:10 | 13.40901 | 79.36196 | 35780 ft | 436 kts | 292° |
| 2026-04-24 10:10 | 13.43784 | 79.30724 | 35780 ft | 436 kts | 291° |
| 2026-04-24 10:11 | 13.46666 | 79.25246 | 35780 ft | 436 kts | 292° |
| 2026-04-24 10:11 | 13.49554 | 79.19765 | 35779 ft | 436 kts | 292° |
| 2026-04-24 10:12 | 13.52436 | 79.14297 | 35781 ft | 436 kts | 291° |
| 2026-04-24 10:12 | 13.55315 | 79.08833 | 35787 ft | 436 kts | 291° |
| 2026-04-24 10:13 | 13.58196 | 79.03361 | 35799 ft | 436 kts | 291° |
| 2026-04-24 10:13 | 13.61086 | 78.97871 | 35811 ft | 436 kts | 291° |
| 2026-04-24 10:14 | 13.63963 | 78.92400 | 35822 ft | 436 kts | 291° |
| 2026-04-24 10:14 | 13.66854 | 78.86898 | 35829 ft | 436 kts | 291° |
| 2026-04-24 10:15 | 13.69724 | 78.81436 | 35832 ft | 436 kts | 291° |
| 2026-04-24 10:15 | 13.72603 | 78.75949 | 35832 ft | 435 kts | 291° |
| 2026-04-24 10:16 | 13.75469 | 78.70486 | 35833 ft | 435 kts | 291° |
| 2026-04-24 10:16 | 13.78337 | 78.65013 | 35832 ft | 435 kts | 291° |
| 2026-04-24 10:17 | 13.81208 | 78.59532 | 35827 ft | 434 kts | 291° |
| 2026-04-24 10:17 | 13.84082 | 78.54044 | 35819 ft | 434 kts | 291° |
| 2026-04-24 10:18 | 13.86937 | 78.48585 | 35810 ft | 434 kts | 291° |
| 2026-04-24 10:18 | 13.89778 | 78.43151 | 35800 ft | 434 kts | 291° |
| 2026-04-24 10:19 | 13.92654 | 78.37646 | 35791 ft | 433 kts | 291° |
| 2026-04-24 10:19 | 13.95488 | 78.32210 | 35784 ft | 433 kts | 290° |
| 2026-04-24 10:20 | 13.98333 | 78.26736 | 35781 ft | 433 kts | 291° |
| 2026-04-24 10:20 | 14.01189 | 78.21248 | 35780 ft | 433 kts | 291° |
| 2026-04-24 10:21 | 14.04037 | 78.15778 | 35780 ft | 433 kts | 291° |
| 2026-04-24 10:21 | 14.06879 | 78.10317 | 35780 ft | 433 kts | 291° |
| 2026-04-24 10:22 | 14.09721 | 78.04855 | 35779 ft | 433 kts | 291° |
| 2026-04-24 10:22 | 14.12596 | 77.99369 | 35779 ft | 433 kts | 291° |
| 2026-04-24 10:23 | 14.15441 | 77.93938 | 35783 ft | 433 kts | 291° |
| 2026-04-24 10:23 | 14.18298 | 77.88453 | 35794 ft | 433 kts | 291° |
| 2026-04-24 10:24 | 14.21132 | 77.82996 | 35810 ft | 433 kts | 291° |
| 2026-04-24 10:24 | 14.23983 | 77.77499 | 35828 ft | 433 kts | 291° |
| 2026-04-24 10:25 | 14.26803 | 77.72057 | 35844 ft | 433 kts | 291° |
| 2026-04-24 10:25 | 14.29641 | 77.66577 | 35851 ft | 432 kts | 291° |
| 2026-04-24 10:26 | 14.32470 | 77.61108 | 35851 ft | 432 kts | 290° |
| 2026-04-24 10:26 | 14.35294 | 77.55649 | 35848 ft | 432 kts | 290° |
| 2026-04-24 10:27 | 14.38120 | 77.50177 | 35843 ft | 432 kts | 290° |
| 2026-04-24 10:28 | 14.43780 | 77.39208 | 35836 ft | 433 kts | 290° |
| 2026-04-24 10:28 | 14.46606 | 77.33724 | 35828 ft | 433 kts | 290° |
| 2026-04-24 10:29 | 14.49419 | 77.28243 | 35814 ft | 433 kts | 290° |
| 2026-04-24 10:29 | 14.52243 | 77.22748 | 35808 ft | 433 kts | 290° |
| 2026-04-24 10:30 | 14.55066 | 77.17257 | 35807 ft | 433 kts | 290° |
| 2026-04-24 10:30 | 14.57891 | 77.11759 | 35806 ft | 433 kts | 290° |
| 2026-04-24 10:31 | 14.60694 | 77.06274 | 35806 ft | 433 kts | 290° |
| 2026-04-24 10:31 | 14.63480 | 77.00731 | 35806 ft | 433 kts | 290° |
| 2026-04-24 10:32 | 14.66245 | 76.95226 | 35809 ft | 433 kts | 290° |
| 2026-04-24 10:32 | 14.69016 | 76.89709 | 35813 ft | 434 kts | 290° |
| 2026-04-24 10:33 | 14.71795 | 76.84173 | 35819 ft | 434 kts | 290° |
| 2026-04-24 10:33 | 14.74564 | 76.78653 | 35825 ft | 434 kts | 290° |
| 2026-04-24 10:34 | 14.77352 | 76.73093 | 35830 ft | 434 kts | 290° |
| 2026-04-24 10:34 | 14.80120 | 76.67566 | 35832 ft | 433 kts | 290° |
| 2026-04-24 10:35 | 14.82883 | 76.62047 | 35832 ft | 433 kts | 290° |
| 2026-04-24 10:35 | 14.85656 | 76.56503 | 35833 ft | 433 kts | 290° |
| 2026-04-24 10:36 | 14.88427 | 76.50962 | 35833 ft | 433 kts | 290° |
| 2026-04-24 10:36 | 14.91174 | 76.45464 | 35832 ft | 433 kts | 290° |
| 2026-04-24 10:37 | 14.93933 | 76.39934 | 35832 ft | 433 kts | 290° |
| 2026-04-24 10:37 | 14.96705 | 76.34376 | 35834 ft | 433 kts | 289° |
| 2026-04-24 10:38 | 14.99450 | 76.28850 | 35833 ft | 433 kts | 289° |
| 2026-04-24 10:38 | 15.02221 | 76.23274 | 35833 ft | 434 kts | 289° |
| 2026-04-24 10:39 | 15.04968 | 76.17754 | 35833 ft | 434 kts | 289° |
| 2026-04-24 10:39 | 15.07737 | 76.12188 | 35833 ft | 434 kts | 289° |
| 2026-04-24 10:40 | 15.10497 | 76.06639 | 35831 ft | 434 kts | 289° |
| 2026-04-24 10:40 | 15.13272 | 76.01105 | 35834 ft | 433 kts | 289° |
| 2026-04-24 10:41 | 15.16107 | 75.95603 | 35838 ft | 435 kts | 291° |
| 2026-04-24 10:41 | 15.19031 | 75.90080 | 35845 ft | 435 kts | 291° |
| 2026-04-24 10:42 | 15.21926 | 75.84586 | 35851 ft | 435 kts | 291° |
| 2026-04-24 10:42 | 15.24805 | 75.79104 | 35856 ft | 435 kts | 291° |
| 2026-04-24 10:43 | 15.27708 | 75.73566 | 35859 ft | 435 kts | 291° |
| 2026-04-24 10:43 | 15.30576 | 75.68087 | 35859 ft | 435 kts | 291° |
| 2026-04-24 10:44 | 15.33463 | 75.62569 | 35859 ft | 435 kts | 291° |
| 2026-04-24 10:44 | 15.36347 | 75.57053 | 35859 ft | 435 kts | 290° |
| 2026-04-24 10:45 | 15.39214 | 75.51562 | 35859 ft | 435 kts | 290° |
| 2026-04-24 10:45 | 15.42101 | 75.46028 | 35859 ft | 435 kts | 290° |
| 2026-04-24 10:46 | 15.44968 | 75.40531 | 35859 ft | 435 kts | 290° |
| 2026-04-24 10:46 | 15.47832 | 75.35033 | 35859 ft | 435 kts | 290° |
| 2026-04-24 10:47 | 15.50709 | 75.29491 | 35860 ft | 434 kts | 290° |
| 2026-04-24 10:47 | 15.53559 | 75.23998 | 35859 ft | 434 kts | 290° |
| 2026-04-24 10:48 | 15.56424 | 75.18482 | 35859 ft | 434 kts | 290° |
| 2026-04-24 10:48 | 15.59289 | 75.12965 | 35859 ft | 434 kts | 290° |
| 2026-04-24 10:49 | 15.62148 | 75.07457 | 35861 ft | 434 kts | 290° |
| 2026-04-24 10:49 | 15.65003 | 75.01952 | 35868 ft | 434 kts | 290° |
| 2026-04-24 10:50 | 15.67882 | 74.96397 | 35882 ft | 434 kts | 290° |
| 2026-04-24 10:50 | 15.70735 | 74.90889 | 35902 ft | 434 kts | 290° |
| 2026-04-24 10:51 | 15.73588 | 74.85377 | 35922 ft | 434 kts | 290° |
| 2026-04-24 10:51 | 15.76443 | 74.79855 | 35933 ft | 434 kts | 290° |
| 2026-04-24 10:52 | 15.79301 | 74.74325 | 35940 ft | 435 kts | 290° |
| 2026-04-24 10:52 | 15.82161 | 74.68784 | 35942 ft | 434 kts | 290° |
| 2026-04-24 10:53 | 15.84991 | 74.63296 | 35942 ft | 434 kts | 290° |
| 2026-04-24 10:53 | 15.87766 | 74.57739 | 35942 ft | 432 kts | 289° |
| 2026-04-24 10:54 | 15.90447 | 74.52184 | 35942 ft | 432 kts | 289° |
| 2026-04-24 10:54 | 15.93142 | 74.46608 | 35941 ft | 432 kts | 289° |
| 2026-04-24 10:55 | 15.95857 | 74.40997 | 35942 ft | 433 kts | 289° |
| 2026-04-24 10:55 | 15.98560 | 74.35407 | 35943 ft | 433 kts | 289° |
| 2026-04-24 10:56 | 16.01257 | 74.29820 | 35943 ft | 432 kts | 288° |
| 2026-04-24 10:56 | 16.03952 | 74.24231 | 35942 ft | 432 kts | 288° |
| 2026-04-24 10:57 | 16.06650 | 74.18638 | 35942 ft | 432 kts | 288° |
| 2026-04-24 10:57 | 16.09341 | 74.13061 | 35941 ft | 432 kts | 288° |
| 2026-04-24 10:58 | 16.12055 | 74.07467 | 35927 ft | 433 kts | 289° |
| 2026-04-24 10:58 | 16.14759 | 74.01897 | 35906 ft | 433 kts | 288° |
| 2026-04-24 10:59 | 16.17451 | 73.96306 | 35876 ft | 433 kts | 288° |
| 2026-04-24 10:59 | 16.20140 | 73.90713 | 35847 ft | 433 kts | 288° |
| 2026-04-24 11:00 | 16.22863 | 73.85085 | 35828 ft | 433 kts | 288° |
| 2026-04-24 11:00 | 16.25557 | 73.79514 | 35822 ft | 433 kts | 288° |
| 2026-04-24 11:01 | 16.28262 | 73.73904 | 35822 ft | 432 kts | 288° |
| 2026-04-24 11:01 | 16.30953 | 73.68316 | 35824 ft | 432 kts | 288° |
| 2026-04-24 11:02 | 16.33638 | 73.62728 | 35829 ft | 432 kts | 288° |
| 2026-04-24 11:02 | 16.36329 | 73.57131 | 35831 ft | 432 kts | 289° |
| 2026-04-24 11:03 | 16.39078 | 73.51548 | 35832 ft | 433 kts | 289° |
| 2026-04-24 11:03 | 16.41841 | 73.46014 | 35832 ft | 433 kts | 289° |
| 2026-04-24 11:04 | 16.44612 | 73.40440 | 35832 ft | 433 kts | 289° |
| 2026-04-24 11:04 | 16.47378 | 73.34860 | 35834 ft | 432 kts | 289° |
| 2026-04-24 11:05 | 16.50125 | 73.29291 | 35832 ft | 432 kts | 289° |
| 2026-04-24 11:05 | 16.52864 | 73.23743 | 35833 ft | 432 kts | 289° |
| 2026-04-24 11:06 | 16.55624 | 73.18153 | 35832 ft | 432 kts | 289° |
| 2026-04-24 11:06 | 16.58372 | 73.12588 | 35833 ft | 431 kts | 289° |
| 2026-04-24 11:07 | 16.62410 | 73.04219 | 35833 ft | 430 kts | 288° |
| 2026-04-24 11:07 | 16.65047 | 72.98661 | 35832 ft | 430 kts | 288° |
| 2026-04-24 11:08 | 16.67695 | 72.93083 | 35830 ft | 430 kts | 289° |
| 2026-04-24 11:08 | 16.70353 | 72.87489 | 35825 ft | 430 kts | 289° |
| 2026-04-24 11:09 | 16.73005 | 72.81899 | 35818 ft | 430 kts | 289° |
| 2026-04-24 11:09 | 16.75660 | 72.76302 | 35808 ft | 429 kts | 289° |
| 2026-04-24 11:10 | 16.78332 | 72.70664 | 35800 ft | 429 kts | 289° |
| 2026-04-24 11:10 | 16.80987 | 72.65053 | 35790 ft | 430 kts | 289° |
| 2026-04-24 11:11 | 16.83628 | 72.59470 | 35783 ft | 430 kts | 289° |
| 2026-04-24 11:11 | 16.86281 | 72.53858 | 35780 ft | 430 kts | 289° |
| 2026-04-24 11:12 | 16.88912 | 72.48284 | 35780 ft | 429 kts | 289° |
| 2026-04-24 11:12 | 16.91543 | 72.42708 | 35779 ft | 429 kts | 289° |
| 2026-04-24 11:13 | 16.94184 | 72.37107 | 35780 ft | 429 kts | 289° |
| 2026-04-24 11:13 | 16.96805 | 72.31531 | 35780 ft | 429 kts | 289° |
| 2026-04-24 11:14 | 16.99424 | 72.25951 | 35780 ft | 429 kts | 289° |
| 2026-04-24 11:14 | 17.02047 | 72.20367 | 35781 ft | 427 kts | 289° |
| 2026-04-24 11:15 | 17.04668 | 72.14793 | 35779 ft | 427 kts | 289° |
| 2026-04-24 11:15 | 17.07299 | 72.09188 | 35779 ft | 427 kts | 289° |
| 2026-04-24 11:16 | 17.09930 | 72.03599 | 35780 ft | 427 kts | 289° |
| 2026-04-24 11:16 | 17.12614 | 71.98075 | 35776 ft | 428 kts | 290° |
| 2026-04-24 11:17 | 17.15323 | 71.92499 | 35778 ft | 429 kts | 290° |
| 2026-04-24 11:17 | 17.18002 | 71.86956 | 35780 ft | 429 kts | 290° |
| 2026-04-24 11:18 | 17.20680 | 71.81390 | 35779 ft | 429 kts | 290° |
| 2026-04-24 11:18 | 17.23353 | 71.75822 | 35778 ft | 428 kts | 290° |
| 2026-04-24 11:19 | 17.26034 | 71.70232 | 35779 ft | 428 kts | 290° |
| 2026-04-24 11:19 | 17.28708 | 71.64649 | 35779 ft | 428 kts | 290° |
| 2026-04-24 11:20 | 17.31380 | 71.59060 | 36038 ft | 429 kts | 290° |
| 2026-04-24 11:20 | 17.32726 | 71.56242 | 36261 ft | 427 kts | 291° |
| 2026-04-24 11:20 | 17.34053 | 71.53464 | 36442 ft | 426 kts | 291° |
| 2026-04-24 11:21 | 17.35399 | 71.50647 | 36588 ft | 426 kts | 291° |
| 2026-04-24 11:21 | 17.36728 | 71.47871 | 36726 ft | 426 kts | 291° |
| 2026-04-24 11:21 | 17.38061 | 71.45092 | 36862 ft | 426 kts | 291° |
| 2026-04-24 11:21 | 17.39385 | 71.42328 | 36994 ft | 426 kts | 291° |
| 2026-04-24 11:22 | 17.40706 | 71.39566 | 37118 ft | 426 kts | 291° |
| 2026-04-24 11:22 | 17.42031 | 71.36794 | 37238 ft | 426 kts | 291° |
| 2026-04-24 11:22 | 17.43348 | 71.34033 | 37354 ft | 426 kts | 291° |
| 2026-04-24 11:22 | 17.44675 | 71.31242 | 37484 ft | 426 kts | 291° |
| 2026-04-24 11:23 | 17.45997 | 71.28455 | 37618 ft | 425 kts | 291° |
| 2026-04-24 11:23 | 17.47314 | 71.25683 | 37740 ft | 425 kts | 291° |
| 2026-04-24 11:23 | 17.49938 | 71.20165 | 37775 ft | 426 kts | 291° |
| 2026-04-24 11:24 | 17.52586 | 71.14597 | 37779 ft | 427 kts | 292° |
| 2026-04-24 11:24 | 17.55220 | 71.09052 | 37780 ft | 427 kts | 292° |
| 2026-04-24 11:25 | 17.57872 | 71.03465 | 37781 ft | 428 kts | 292° |
| 2026-04-24 11:25 | 17.60514 | 70.97896 | 37781 ft | 428 kts | 292° |
| 2026-04-24 11:26 | 17.63173 | 70.92286 | 37781 ft | 429 kts | 292° |
| 2026-04-24 11:26 | 17.65818 | 70.86698 | 37781 ft | 429 kts | 292° |
| 2026-04-24 11:27 | 17.68478 | 70.81075 | 37780 ft | 430 kts | 292° |
| 2026-04-24 11:27 | 17.71125 | 70.75474 | 37780 ft | 430 kts | 292° |
| 2026-04-24 11:28 | 17.73776 | 70.69857 | 37781 ft | 431 kts | 293° |
| 2026-04-24 11:28 | 17.76442 | 70.64204 | 37780 ft | 432 kts | 293° |
| 2026-04-24 11:29 | 17.79108 | 70.58547 | 37780 ft | 432 kts | 293° |
| 2026-04-24 11:29 | 17.81774 | 70.52890 | 37781 ft | 432 kts | 293° |
| 2026-04-24 11:30 | 17.84433 | 70.47237 | 37780 ft | 433 kts | 293° |
| 2026-04-24 11:30 | 17.87110 | 70.41540 | 37781 ft | 433 kts | 293° |
| 2026-04-24 11:31 | 17.89777 | 70.35853 | 37780 ft | 434 kts | 294° |
| 2026-04-24 11:31 | 17.92451 | 70.30130 | 37781 ft | 434 kts | 293° |
| 2026-04-24 11:32 | 17.95113 | 70.24429 | 37781 ft | 434 kts | 293° |
| 2026-04-24 11:32 | 17.97784 | 70.18710 | 37783 ft | 434 kts | 294° |
| 2026-04-24 11:33 | 18.00456 | 70.12991 | 37787 ft | 435 kts | 294° |
| 2026-04-24 11:33 | 18.03108 | 70.07311 | 37791 ft | 435 kts | 294° |
| 2026-04-24 11:34 | 18.05774 | 70.01598 | 37796 ft | 435 kts | 294° |
| 2026-04-24 11:34 | 18.08430 | 69.95897 | 37800 ft | 435 kts | 294° |
| 2026-04-24 11:35 | 18.11077 | 69.90227 | 37803 ft | 435 kts | 294° |
| 2026-04-24 11:35 | 18.13757 | 69.84525 | 37805 ft | 434 kts | 294° |
| 2026-04-24 11:36 | 18.16426 | 69.78808 | 37806 ft | 435 kts | 294° |
| 2026-04-24 11:36 | 18.19066 | 69.73132 | 37806 ft | 435 kts | 294° |
| 2026-04-24 11:37 | 18.21727 | 69.67395 | 37806 ft | 435 kts | 294° |
| 2026-04-24 11:37 | 18.24595 | 69.61203 | 37805 ft | 435 kts | 294° |
| 2026-04-24 11:38 | 18.27232 | 69.55504 | 37806 ft | 435 kts | 294° |
| 2026-04-24 11:38 | 18.29885 | 69.49764 | 37806 ft | 435 kts | 294° |
| 2026-04-24 11:39 | 18.32526 | 69.44039 | 37806 ft | 435 kts | 294° |
| 2026-04-24 11:39 | 18.35173 | 69.38294 | 37806 ft | 436 kts | 294° |
| 2026-04-24 11:40 | 18.37813 | 69.32556 | 37806 ft | 436 kts | 294° |
| 2026-04-24 11:40 | 18.40589 | 69.26881 | 37806 ft | 436 kts | 297° |
| 2026-04-24 11:41 | 18.43474 | 69.21264 | 37806 ft | 436 kts | 297° |
| 2026-04-24 11:41 | 18.46355 | 69.15655 | 37806 ft | 437 kts | 297° |
| 2026-04-24 11:42 | 18.49223 | 69.10062 | 37805 ft | 436 kts | 297° |
| 2026-04-24 11:42 | 18.52114 | 69.04414 | 37806 ft | 437 kts | 297° |
| 2026-04-24 11:43 | 18.54995 | 68.98781 | 37805 ft | 437 kts | 297° |
| 2026-04-24 11:43 | 18.57861 | 68.93173 | 37806 ft | 437 kts | 297° |
| 2026-04-24 11:44 | 18.60740 | 68.87531 | 37808 ft | 437 kts | 298° |
| 2026-04-24 11:44 | 18.63612 | 68.81899 | 37812 ft | 437 kts | 298° |
| 2026-04-24 11:45 | 18.66496 | 68.76239 | 37816 ft | 437 kts | 298° |
| 2026-04-24 11:45 | 18.69362 | 68.70609 | 37821 ft | 437 kts | 298° |
| 2026-04-24 11:46 | 18.72239 | 68.64951 | 37825 ft | 437 kts | 298° |
| 2026-04-24 11:46 | 18.75116 | 68.59289 | 37830 ft | 438 kts | 298° |
| 2026-04-24 11:47 | 18.77994 | 68.53618 | 37833 ft | 438 kts | 298° |
| 2026-04-24 11:47 | 18.80862 | 68.47963 | 37834 ft | 438 kts | 298° |
| 2026-04-24 11:48 | 18.83765 | 68.42232 | 37834 ft | 438 kts | 298° |
| 2026-04-24 11:48 | 18.86645 | 68.36543 | 37834 ft | 438 kts | 298° |
| 2026-04-24 11:49 | 18.89504 | 68.30872 | 37834 ft | 438 kts | 298° |
| 2026-04-24 11:49 | 18.92371 | 68.25176 | 37834 ft | 438 kts | 298° |
| 2026-04-24 11:50 | 18.95235 | 68.19495 | 37834 ft | 438 kts | 298° |
| 2026-04-24 11:50 | 18.98119 | 68.13775 | 37834 ft | 438 kts | 298° |
| 2026-04-24 11:51 | 19.01005 | 68.08044 | 37834 ft | 438 kts | 298° |
| 2026-04-24 11:51 | 19.03872 | 68.02348 | 37834 ft | 438 kts | 298° |
| 2026-04-24 11:52 | 19.06722 | 67.96726 | 37833 ft | 437 kts | 300° |
| 2026-04-24 11:52 | 19.09671 | 67.91016 | 37832 ft | 438 kts | 300° |
| 2026-04-24 11:53 | 19.12613 | 67.85359 | 37829 ft | 437 kts | 300° |
| 2026-04-24 11:53 | 19.15531 | 67.79736 | 37823 ft | 437 kts | 300° |
| 2026-04-24 11:54 | 19.18453 | 67.74075 | 37817 ft | 438 kts | 300° |
| 2026-04-24 11:54 | 19.21377 | 67.68385 | 37813 ft | 438 kts | 300° |
| 2026-04-24 11:55 | 19.24287 | 67.62715 | 37810 ft | 437 kts | 300° |
| 2026-04-24 11:55 | 19.27200 | 67.57033 | 37808 ft | 437 kts | 300° |
| 2026-04-24 11:56 | 19.30121 | 67.51327 | 37808 ft | 438 kts | 300° |
| 2026-04-24 11:56 | 19.33030 | 67.45639 | 37808 ft | 437 kts | 300° |
| 2026-04-24 11:57 | 19.35926 | 67.39972 | 37808 ft | 437 kts | 300° |
| 2026-04-24 11:57 | 19.38811 | 67.34320 | 37808 ft | 437 kts | 300° |
| 2026-04-24 11:58 | 19.41692 | 67.28642 | 37808 ft | 436 kts | 300° |
| 2026-04-24 11:58 | 19.44568 | 67.22978 | 37807 ft | 436 kts | 300° |
| 2026-04-24 11:59 | 19.47453 | 67.17301 | 37807 ft | 435 kts | 300° |
| 2026-04-24 11:59 | 19.50319 | 67.11665 | 37808 ft | 435 kts | 300° |
| 2026-04-24 12:00 | 19.53196 | 67.06000 | 37808 ft | 435 kts | 300° |
| 2026-04-24 12:00 | 19.56057 | 67.00361 | 37808 ft | 434 kts | 300° |
| 2026-04-24 12:01 | 19.58911 | 66.94733 | 37808 ft | 434 kts | 300° |
| 2026-04-24 12:01 | 19.61775 | 66.89078 | 37808 ft | 433 kts | 300° |
| 2026-04-24 12:02 | 19.64619 | 66.83462 | 37807 ft | 433 kts | 300° |
| 2026-04-24 12:02 | 19.67458 | 66.77846 | 37808 ft | 432 kts | 300° |
| 2026-04-24 12:03 | 19.70306 | 66.72205 | 37807 ft | 432 kts | 300° |
| 2026-04-24 12:03 | 19.73143 | 66.66584 | 37808 ft | 431 kts | 300° |
| 2026-04-24 12:04 | 19.75977 | 66.60963 | 37807 ft | 431 kts | 300° |
| 2026-04-24 12:04 | 19.78787 | 66.55382 | 37807 ft | 430 kts | 300° |
| 2026-04-24 12:05 | 19.81618 | 66.49757 | 37807 ft | 429 kts | 300° |
| 2026-04-24 12:05 | 19.84419 | 66.44186 | 37807 ft | 429 kts | 300° |
| 2026-04-24 12:06 | 19.87240 | 66.38567 | 37807 ft | 429 kts | 300° |
| 2026-04-24 12:06 | 19.90034 | 66.32991 | 37808 ft | 428 kts | 300° |
| 2026-04-24 12:07 | 19.92828 | 66.27389 | 37808 ft | 428 kts | 300° |
| 2026-04-24 12:07 | 19.95636 | 66.21766 | 37808 ft | 428 kts | 300° |
| 2026-04-24 12:08 | 19.98420 | 66.16193 | 37808 ft | 428 kts | 300° |
| 2026-04-24 12:08 | 20.01230 | 66.10568 | 37808 ft | 427 kts | 300° |
| 2026-04-24 12:09 | 20.04020 | 66.04980 | 37808 ft | 427 kts | 300° |
| 2026-04-24 12:09 | 20.06801 | 65.99398 | 37809 ft | 426 kts | 301° |
| 2026-04-24 12:10 | 20.09576 | 65.93827 | 37807 ft | 425 kts | 301° |
| 2026-04-24 12:11 | 20.13734 | 65.85541 | 37808 ft | 425 kts | 301° |
| 2026-04-24 12:11 | 20.16520 | 65.79964 | 37808 ft | 425 kts | 301° |
| 2026-04-24 12:12 | 20.19282 | 65.74413 | 37808 ft | 424 kts | 301° |
| 2026-04-24 12:12 | 20.22036 | 65.68864 | 37808 ft | 424 kts | 301° |
| 2026-04-24 12:13 | 20.24802 | 65.63282 | 37808 ft | 424 kts | 301° |
| 2026-04-24 12:13 | 20.27555 | 65.57722 | 37808 ft | 424 kts | 301° |
| 2026-04-24 12:14 | 20.30307 | 65.52156 | 37808 ft | 424 kts | 301° |
| 2026-04-24 12:14 | 20.33054 | 65.46595 | 37808 ft | 424 kts | 301° |
| 2026-04-24 12:15 | 20.35807 | 65.41015 | 37808 ft | 424 kts | 301° |
| 2026-04-24 12:15 | 20.38552 | 65.35448 | 37807 ft | 425 kts | 300° |
| 2026-04-24 12:16 | 20.41295 | 65.29851 | 37807 ft | 425 kts | 300° |
| 2026-04-24 12:16 | 20.44041 | 65.24249 | 37807 ft | 424 kts | 300° |
| 2026-04-24 12:17 | 20.46779 | 65.18668 | 37807 ft | 424 kts | 300° |
| 2026-04-24 12:17 | 20.49510 | 65.13104 | 37807 ft | 425 kts | 300° |
| 2026-04-24 12:18 | 20.52255 | 65.07501 | 37808 ft | 424 kts | 300° |
| 2026-04-24 12:18 | 20.54988 | 65.01922 | 37807 ft | 423 kts | 300° |
| 2026-04-24 12:19 | 20.57759 | 64.96327 | 37807 ft | 423 kts | 301° |
| 2026-04-24 12:19 | 20.60557 | 64.90753 | 37807 ft | 423 kts | 301° |
| 2026-04-24 12:20 | 20.63333 | 64.85207 | 37808 ft | 423 kts | 301° |
| 2026-04-24 12:20 | 20.66096 | 64.79673 | 37807 ft | 423 kts | 301° |
| 2026-04-24 12:21 | 20.68855 | 64.74138 | 37807 ft | 423 kts | 301° |
| 2026-04-24 12:21 | 20.71629 | 64.68568 | 37807 ft | 423 kts | 300° |
| 2026-04-24 12:22 | 20.74387 | 64.63020 | 37807 ft | 423 kts | 301° |
| 2026-04-24 12:22 | 20.77144 | 64.57469 | 37807 ft | 423 kts | 301° |
| 2026-04-24 12:23 | 20.79920 | 64.51878 | 37807 ft | 424 kts | 300° |
| 2026-04-24 12:23 | 20.82683 | 64.46306 | 37807 ft | 424 kts | 300° |
| 2026-04-24 12:24 | 20.85432 | 64.40756 | 37807 ft | 424 kts | 300° |
| 2026-04-24 12:24 | 20.88193 | 64.35175 | 37807 ft | 424 kts | 300° |
| 2026-04-24 12:25 | 20.90948 | 64.29576 | 37808 ft | 424 kts | 300° |
| 2026-04-24 12:25 | 20.93690 | 64.24000 | 37808 ft | 424 kts | 300° |
| 2026-04-24 12:26 | 20.96454 | 64.18388 | 37808 ft | 424 kts | 300° |
| 2026-04-24 12:26 | 20.99199 | 64.12813 | 37807 ft | 424 kts | 300° |
| 2026-04-24 12:27 | 21.01948 | 64.07228 | 37808 ft | 424 kts | 300° |
| 2026-04-24 12:27 | 21.04696 | 64.01642 | 37808 ft | 424 kts | 300° |
| 2026-04-24 12:28 | 21.07000 | 63.96954 | 37807 ft | 424 kts | 300° |
| 2026-04-24 12:28 | 21.10213 | 63.90407 | 37808 ft | 424 kts | 300° |
| 2026-04-24 12:29 | 21.12987 | 63.84799 | 37808 ft | 424 kts | 300° |
| 2026-04-24 12:29 | 21.15742 | 63.79211 | 37807 ft | 425 kts | 300° |
| 2026-04-24 12:30 | 21.18485 | 63.73619 | 37807 ft | 425 kts | 300° |
| 2026-04-24 12:30 | 21.21228 | 63.68011 | 37808 ft | 425 kts | 300° |
| 2026-04-24 12:31 | 21.23988 | 63.62358 | 37808 ft | 425 kts | 300° |
| 2026-04-24 12:31 | 21.26727 | 63.56745 | 37808 ft | 425 kts | 300° |
| 2026-04-24 12:32 | 21.29461 | 63.51130 | 37808 ft | 425 kts | 300° |
| 2026-04-24 12:32 | 21.32197 | 63.45508 | 37808 ft | 425 kts | 300° |
| 2026-04-24 12:33 | 21.34939 | 63.39867 | 37808 ft | 425 kts | 300° |
| 2026-04-24 12:33 | 21.37666 | 63.34251 | 37808 ft | 425 kts | 299° |
| 2026-04-24 12:34 | 21.40387 | 63.28611 | 37807 ft | 425 kts | 299° |
| 2026-04-24 12:34 | 21.43095 | 63.23004 | 37807 ft | 424 kts | 299° |
| 2026-04-24 12:35 | 21.45812 | 63.17382 | 37807 ft | 424 kts | 300° |
| 2026-04-24 12:35 | 21.48534 | 63.11753 | 37807 ft | 423 kts | 299° |
| 2026-04-24 12:36 | 21.51247 | 63.06134 | 37807 ft | 423 kts | 299° |
| 2026-04-24 12:36 | 21.53983 | 63.00464 | 37807 ft | 423 kts | 299° |
| 2026-04-24 12:37 | 21.56677 | 62.94875 | 37807 ft | 423 kts | 299° |
| 2026-04-24 12:37 | 21.59397 | 62.89224 | 37807 ft | 423 kts | 299° |
| 2026-04-24 12:38 | 21.62089 | 62.83627 | 37807 ft | 423 kts | 299° |
| 2026-04-24 12:38 | 21.64788 | 62.78007 | 37807 ft | 423 kts | 299° |
| 2026-04-24 12:39 | 21.70169 | 62.66787 | 37807 ft | 422 kts | 299° |
| 2026-04-24 12:40 | 21.72864 | 62.61156 | 37807 ft | 422 kts | 299° |
| 2026-04-24 12:40 | 21.75552 | 62.55534 | 37807 ft | 422 kts | 299° |
| 2026-04-24 12:41 | 21.78231 | 62.49924 | 37807 ft | 422 kts | 299° |
| 2026-04-24 12:41 | 21.80910 | 62.44303 | 37807 ft | 422 kts | 299° |
| 2026-04-24 12:42 | 21.83599 | 62.38656 | 37806 ft | 422 kts | 298° |
| 2026-04-24 12:42 | 21.86054 | 62.32929 | 37808 ft | 422 kts | 296° |
| 2026-04-24 12:43 | 21.88442 | 62.27136 | 37808 ft | 422 kts | 295° |
| 2026-04-24 12:43 | 21.90820 | 62.21370 | 37808 ft | 422 kts | 295° |
| 2026-04-24 12:44 | 21.93200 | 62.15601 | 37808 ft | 422 kts | 295° |
| 2026-04-24 12:44 | 21.95587 | 62.09813 | 37807 ft | 422 kts | 296° |
| 2026-04-24 12:45 | 21.97975 | 62.04018 | 37807 ft | 422 kts | 296° |
| 2026-04-24 12:45 | 22.00363 | 61.98217 | 37807 ft | 422 kts | 296° |
| 2026-04-24 12:46 | 22.02748 | 61.92417 | 37807 ft | 422 kts | 296° |
| 2026-04-24 12:46 | 22.05114 | 61.86657 | 37807 ft | 422 kts | 296° |
| 2026-04-24 12:47 | 22.07497 | 61.80848 | 37807 ft | 422 kts | 296° |
| 2026-04-24 12:47 | 22.09867 | 61.75064 | 37807 ft | 422 kts | 296° |
| 2026-04-24 12:48 | 22.12271 | 61.69241 | 37808 ft | 421 kts | 296° |
| 2026-04-24 12:48 | 22.14651 | 61.63470 | 37808 ft | 421 kts | 296° |
| 2026-04-24 12:49 | 22.17024 | 61.57680 | 37808 ft | 421 kts | 296° |
| 2026-04-24 12:49 | 22.19376 | 61.51918 | 37807 ft | 420 kts | 296° |
| 2026-04-24 12:50 | 22.21730 | 61.46143 | 37808 ft | 421 kts | 295° |
| 2026-04-24 12:50 | 22.24092 | 61.40336 | 37809 ft | 420 kts | 296° |
| 2026-04-24 12:51 | 22.26431 | 61.34577 | 37808 ft | 420 kts | 295° |
| 2026-04-24 12:51 | 22.28710 | 61.28934 | 37808 ft | 420 kts | 295° |
| 2026-04-24 12:52 | 22.31046 | 61.23149 | 37807 ft | 419 kts | 295° |
| 2026-04-24 12:52 | 22.33384 | 61.17365 | 37807 ft | 419 kts | 295° |
| 2026-04-24 12:53 | 22.35705 | 61.11624 | 37807 ft | 418 kts | 295° |
| 2026-04-24 12:53 | 22.38042 | 61.05833 | 37808 ft | 417 kts | 295° |
| 2026-04-24 12:54 | 22.40355 | 61.00100 | 37807 ft | 417 kts | 295° |
| 2026-04-24 12:54 | 22.42675 | 60.94338 | 37808 ft | 416 kts | 295° |
| 2026-04-24 12:55 | 22.44992 | 60.88580 | 37807 ft | 416 kts | 295° |
| 2026-04-24 12:55 | 22.47300 | 60.82837 | 37807 ft | 416 kts | 295° |
| 2026-04-24 12:56 | 22.49606 | 60.77090 | 37807 ft | 416 kts | 295° |
| 2026-04-24 12:56 | 22.51905 | 60.71349 | 37808 ft | 416 kts | 295° |
| 2026-04-24 12:57 | 22.54206 | 60.65597 | 37807 ft | 415 kts | 295° |
| 2026-04-24 12:57 | 22.56495 | 60.59862 | 37807 ft | 415 kts | 295° |
| 2026-04-24 12:58 | 22.58790 | 60.54114 | 37807 ft | 415 kts | 295° |
| 2026-04-24 12:58 | 22.61090 | 60.48372 | 37807 ft | 414 kts | 295° |
| 2026-04-24 12:59 | 22.63380 | 60.42640 | 37807 ft | 414 kts | 295° |
| 2026-04-24 12:59 | 22.65661 | 60.36917 | 37807 ft | 414 kts | 295° |
| 2026-04-24 13:00 | 22.67949 | 60.31150 | 37808 ft | 414 kts | 295° |
| 2026-04-24 13:00 | 22.70074 | 60.25777 | 37808 ft | 414 kts | 295° |
| 2026-04-24 13:01 | 22.72358 | 60.20010 | 37807 ft | 414 kts | 295° |
| 2026-04-24 13:01 | 22.74625 | 60.14285 | 37807 ft | 414 kts | 295° |
| 2026-04-24 13:02 | 22.76905 | 60.08524 | 37807 ft | 414 kts | 295° |
| 2026-04-24 13:02 | 22.79157 | 60.02825 | 37807 ft | 414 kts | 295° |
| 2026-04-24 13:03 | 22.81432 | 59.97061 | 37808 ft | 412 kts | 295° |
| 2026-04-24 13:03 | 22.83662 | 59.91401 | 37807 ft | 411 kts | 295° |
| 2026-04-24 13:04 | 22.85918 | 59.85679 | 37808 ft | 410 kts | 295° |
| 2026-04-24 13:04 | 22.88161 | 59.79988 | 37807 ft | 410 kts | 295° |
| 2026-04-24 13:05 | 22.90400 | 59.74293 | 37807 ft | 410 kts | 295° |
| 2026-04-24 13:05 | 22.92637 | 59.68592 | 37807 ft | 410 kts | 295° |
| 2026-04-24 13:06 | 22.94862 | 59.62918 | 37807 ft | 409 kts | 295° |
| 2026-04-24 13:06 | 22.97086 | 59.57235 | 37807 ft | 409 kts | 295° |
| 2026-04-24 13:07 | 22.99326 | 59.51506 | 37807 ft | 409 kts | 295° |
| 2026-04-24 13:07 | 23.01543 | 59.45823 | 37807 ft | 409 kts | 295° |
| 2026-04-24 13:08 | 23.03763 | 59.40129 | 37808 ft | 409 kts | 295° |
| 2026-04-24 13:08 | 23.05964 | 59.34469 | 37809 ft | 409 kts | 294° |
| 2026-04-24 13:09 | 23.08818 | 59.27049 | 37808 ft | 408 kts | 294° |
| 2026-04-24 13:09 | 23.11345 | 59.20514 | 37808 ft | 408 kts | 294° |
| 2026-04-24 13:10 | 23.13554 | 59.14825 | 37807 ft | 408 kts | 294° |
| 2026-04-24 13:10 | 23.16094 | 59.09340 | 37804 ft | 406 kts | 307° |
| 2026-04-24 13:11 | 23.19721 | 59.04613 | 37807 ft | 406 kts | 311° |
| 2026-04-24 13:11 | 23.23478 | 59.00003 | 37807 ft | 406 kts | 311° |
| 2026-04-24 13:12 | 23.27235 | 58.95410 | 37807 ft | 406 kts | 311° |
| 2026-04-24 13:12 | 23.30976 | 58.90840 | 37807 ft | 406 kts | 311° |
| 2026-04-24 13:13 | 23.34731 | 58.86253 | 37808 ft | 406 kts | 311° |
| 2026-04-24 13:13 | 23.38484 | 58.81673 | 37807 ft | 405 kts | 311° |
| 2026-04-24 13:14 | 23.41730 | 58.76687 | 37807 ft | 406 kts | 298° |
| 2026-04-24 13:14 | 23.43842 | 58.70958 | 37809 ft | 407 kts | 291° |
| 2026-04-24 13:15 | 23.45752 | 58.65128 | 37808 ft | 407 kts | 291° |
| 2026-04-24 13:15 | 23.47639 | 58.59368 | 37807 ft | 407 kts | 291° |
| 2026-04-24 13:16 | 23.49537 | 58.53577 | 37807 ft | 407 kts | 291° |
| 2026-04-24 13:16 | 23.51449 | 58.47743 | 37807 ft | 407 kts | 291° |
| 2026-04-24 13:17 | 23.53348 | 58.41943 | 37807 ft | 407 kts | 291° |
| 2026-04-24 13:17 | 23.55251 | 58.36122 | 37807 ft | 407 kts | 291° |
| 2026-04-24 13:18 | 23.57145 | 58.30301 | 37808 ft | 407 kts | 291° |
| 2026-04-24 13:18 | 23.59034 | 58.24485 | 37807 ft | 407 kts | 291° |
| 2026-04-24 13:19 | 23.60925 | 58.18667 | 37807 ft | 407 kts | 291° |
| 2026-04-24 13:19 | 23.62810 | 58.12861 | 37808 ft | 406 kts | 291° |
| 2026-04-24 13:20 | 23.64689 | 58.07068 | 37807 ft | 406 kts | 291° |
| 2026-04-24 13:20 | 23.66577 | 58.01241 | 37807 ft | 405 kts | 291° |
| 2026-04-24 13:21 | 23.68454 | 57.95437 | 37807 ft | 405 kts | 291° |
| 2026-04-24 13:21 | 23.70044 | 57.89524 | 37807 ft | 407 kts | 285° |
| 2026-04-24 13:22 | 23.71340 | 57.83511 | 37807 ft | 407 kts | 285° |
| 2026-04-24 13:22 | 23.72635 | 57.77521 | 37807 ft | 407 kts | 285° |
| 2026-04-24 13:23 | 23.73938 | 57.71516 | 37807 ft | 407 kts | 285° |
| 2026-04-24 13:23 | 23.75243 | 57.65504 | 37808 ft | 407 kts | 285° |
| 2026-04-24 13:24 | 23.76540 | 57.59523 | 37807 ft | 406 kts | 285° |
| 2026-04-24 13:24 | 23.77846 | 57.53509 | 37807 ft | 405 kts | 285° |
| 2026-04-24 13:25 | 23.79142 | 57.47539 | 37807 ft | 405 kts | 285° |
| 2026-04-24 13:25 | 23.80433 | 57.41567 | 37807 ft | 404 kts | 285° |
| 2026-04-24 13:26 | 23.81730 | 57.35553 | 37807 ft | 404 kts | 285° |
| 2026-04-24 13:26 | 23.83011 | 57.29577 | 37808 ft | 404 kts | 285° |
| 2026-04-24 13:27 | 23.84291 | 57.23591 | 37808 ft | 403 kts | 285° |
| 2026-04-24 13:27 | 23.85562 | 57.17653 | 37807 ft | 403 kts | 285° |
| 2026-04-24 13:28 | 23.86839 | 57.11675 | 37808 ft | 403 kts | 285° |
| 2026-04-24 13:28 | 23.88111 | 57.05711 | 37809 ft | 403 kts | 285° |
| 2026-04-24 13:29 | 23.89258 | 57.00327 | 37810 ft | 402 kts | 285° |
| 2026-04-24 13:29 | 23.90523 | 56.94373 | 37814 ft | 402 kts | 284° |
| 2026-04-24 13:30 | 23.91788 | 56.88409 | 37817 ft | 401 kts | 284° |
| 2026-04-24 13:30 | 23.93044 | 56.82475 | 37819 ft | 401 kts | 284° |
| 2026-04-24 13:31 | 23.94296 | 56.76551 | 37819 ft | 400 kts | 284° |
| 2026-04-24 13:31 | 23.94924 | 56.73573 | 37658 ft | 401 kts | 284° |
| 2026-04-24 13:31 | 23.95552 | 56.70599 | 37407 ft | 400 kts | 284° |
| 2026-04-24 13:32 | 23.96172 | 56.67658 | 37156 ft | 398 kts | 284° |
| 2026-04-24 13:32 | 23.96793 | 56.64704 | 36902 ft | 396 kts | 284° |
| 2026-04-24 13:32 | 23.97415 | 56.61740 | 36579 ft | 396 kts | 284° |
| 2026-04-24 13:32 | 23.98032 | 56.58803 | 36141 ft | 397 kts | 284° |
| 2026-04-24 13:33 | 23.98644 | 56.55889 | 35531 ft | 399 kts | 283° |
| 2026-04-24 13:33 | 23.99266 | 56.52920 | 34815 ft | 402 kts | 283° |
| 2026-04-24 13:33 | 23.99896 | 56.49914 | 34038 ft | 407 kts | 283° |
| 2026-04-24 13:33 | 24.00528 | 56.46883 | 33210 ft | 412 kts | 283° |
| 2026-04-24 13:34 | 24.01164 | 56.43820 | 32361 ft | 418 kts | 283° |
| 2026-04-24 13:34 | 24.01809 | 56.40715 | 31558 ft | 422 kts | 283° |
| 2026-04-24 13:34 | 24.02467 | 56.37548 | 30759 ft | 425 kts | 283° |
| 2026-04-24 13:34 | 24.03117 | 56.34415 | 29971 ft | 428 kts | 283° |
| 2026-04-24 13:35 | 24.03800 | 56.31175 | 29142 ft | 431 kts | 284° |
| 2026-04-24 13:35 | 24.04606 | 56.27936 | 28330 ft | 433 kts | 287° |
| 2026-04-24 13:35 | 24.04939 | 56.26757 | 28043 ft | 433 kts | 288° |
| 2026-04-24 13:36 | 24.05766 | 56.24116 | 27373 ft | 434 kts | 290° |
| 2026-04-24 13:36 | 24.06848 | 56.20986 | 26582 ft | 435 kts | 290° |
| 2026-04-24 13:36 | 24.07923 | 56.17928 | 25793 ft | 436 kts | 290° |
| 2026-04-24 13:36 | 24.09021 | 56.14809 | 24994 ft | 436 kts | 290° |
| 2026-04-24 13:37 | 24.10113 | 56.11706 | 24462 ft | 432 kts | 290° |
| 2026-04-24 13:37 | 24.11232 | 56.08549 | 23945 ft | 429 kts | 290° |
| 2026-04-24 13:37 | 24.12360 | 56.05370 | 23405 ft | 425 kts | 290° |
| 2026-04-24 13:37 | 24.13446 | 56.02295 | 22858 ft | 421 kts | 290° |
| 2026-04-24 13:38 | 24.14500 | 55.99291 | 22309 ft | 417 kts | 289° |
| 2026-04-24 13:38 | 24.15545 | 55.96305 | 21758 ft | 413 kts | 289° |
| 2026-04-24 13:38 | 24.16564 | 55.93385 | 21214 ft | 409 kts | 289° |
| 2026-04-24 13:38 | 24.17574 | 55.90483 | 20669 ft | 405 kts | 289° |
| 2026-04-24 13:39 | 24.18585 | 55.87579 | 20122 ft | 402 kts | 289° |
| 2026-04-24 13:39 | 24.19578 | 55.84726 | 19579 ft | 398 kts | 289° |
| 2026-04-24 13:39 | 24.20559 | 55.81899 | 19039 ft | 395 kts | 289° |
| 2026-04-24 13:39 | 24.21438 | 55.79082 | 18504 ft | 391 kts | 286° |
| 2026-04-24 13:40 | 24.22195 | 55.76192 | 17961 ft | 388 kts | 284° |
| 2026-04-24 13:40 | 24.22889 | 55.73354 | 17422 ft | 385 kts | 284° |
| 2026-04-24 13:40 | 24.23572 | 55.70522 | 16879 ft | 383 kts | 284° |
| 2026-04-24 13:40 | 24.24253 | 55.67704 | 16338 ft | 381 kts | 284° |
| 2026-04-24 13:41 | 24.24934 | 55.64894 | 15795 ft | 379 kts | 284° |
| 2026-04-24 13:41 | 24.25609 | 55.62111 | 15258 ft | 378 kts | 284° |
| 2026-04-24 13:41 | 24.26231 | 55.59290 | 14717 ft | 376 kts | 282° |
| 2026-04-24 13:41 | 24.26777 | 55.56515 | 14185 ft | 374 kts | 281° |
| 2026-04-24 13:42 | 24.27311 | 55.53751 | 13837 ft | 365 kts | 281° |
| 2026-04-24 13:42 | 24.27825 | 55.51081 | 13677 ft | 351 kts | 281° |
| 2026-04-24 13:42 | 24.28324 | 55.48482 | 13519 ft | 338 kts | 281° |
| 2026-04-24 13:42 | 24.28799 | 55.46006 | 13379 ft | 325 kts | 281° |
| 2026-04-24 13:43 | 24.29253 | 55.43645 | 13256 ft | 312 kts | 281° |
| 2026-04-24 13:43 | 24.29700 | 55.41323 | 12976 ft | 306 kts | 281° |
| 2026-04-24 13:43 | 24.30132 | 55.39066 | 12529 ft | 305 kts | 280° |
| 2026-04-24 13:43 | 24.30250 | 55.36745 | 12035 ft | 304 kts | 259° |
| 2026-04-24 13:44 | 24.29499 | 55.34640 | 11568 ft | 302 kts | 235° |
| 2026-04-24 13:44 | 24.28171 | 55.32806 | 11120 ft | 301 kts | 229° |
| 2026-04-24 13:44 | 24.26814 | 55.31070 | 10670 ft | 300 kts | 229° |
| 2026-04-24 13:44 | 24.25452 | 55.29334 | 10218 ft | 300 kts | 229° |
| 2026-04-24 13:45 | 24.24105 | 55.27606 | 9768 ft | 299 kts | 229° |
| 2026-04-24 13:45 | 24.22748 | 55.25858 | 9313 ft | 298 kts | 229° |
| 2026-04-24 13:45 | 24.21415 | 55.24133 | 8863 ft | 297 kts | 229° |
| 2026-04-24 13:45 | 24.20081 | 55.22405 | 8412 ft | 296 kts | 230° |
| 2026-04-24 13:46 | 24.18749 | 55.20679 | 7959 ft | 295 kts | 230° |
| 2026-04-24 13:46 | 24.17423 | 55.18960 | 7507 ft | 295 kts | 230° |
| 2026-04-24 13:46 | 24.16101 | 55.17247 | 7136 ft | 290 kts | 230° |
| 2026-04-24 13:46 | 24.15060 | 55.15409 | 7035 ft | 280 kts | 254° |
| 2026-04-24 13:47 | 24.14962 | 55.13287 | 7004 ft | 284 kts | 278° |
| 2026-04-24 13:47 | 24.15366 | 55.11147 | 6713 ft | 284 kts | 282° |
| 2026-04-24 13:47 | 24.16036 | 55.09124 | 6392 ft | 282 kts | 302° |
| 2026-04-24 13:47 | 24.17408 | 55.07617 | 6088 ft | 283 kts | 328° |
| 2026-04-24 13:48 | 24.19388 | 55.06940 | 5761 ft | 279 kts | 358° |
| 2026-04-24 13:48 | 24.21277 | 55.07332 | 5460 ft | 280 kts | 25° |
| 2026-04-24 13:48 | 24.22830 | 55.08655 | 5157 ft | 283 kts | 52° |
| 2026-04-24 13:48 | 24.23635 | 55.10591 | 4850 ft | 283 kts | 83° |
| 2026-04-24 13:49 | 24.23483 | 55.12744 | 4761 ft | 287 kts | 108° |
| 2026-04-24 13:49 | 24.22466 | 55.14633 | 5245 ft | 292 kts | 137° |
| 2026-04-24 13:49 | 24.20774 | 55.15769 | 5773 ft | 285 kts | 165° |
| 2026-04-24 13:49 | 24.18820 | 55.15870 | 6018 ft | 282 kts | 194° |
| 2026-04-24 13:50 | 24.17073 | 55.14950 | 6032 ft | 279 kts | 221° |
| 2026-04-24 13:50 | 24.15922 | 55.13246 | 6035 ft | 279 kts | 249° |
| 2026-04-24 13:50 | 24.15615 | 55.11169 | 6037 ft | 279 kts | 275° |
| 2026-04-24 13:50 | 24.15920 | 55.09052 | 6037 ft | 280 kts | 280° |
| 2026-04-24 13:51 | 24.16287 | 55.06961 | 6030 ft | 277 kts | 280° |
| 2026-04-24 13:51 | 24.16639 | 55.04921 | 6029 ft | 261 kts | 279° |
| 2026-04-24 13:51 | 24.16961 | 55.03023 | 6024 ft | 244 kts | 282° |
| 2026-04-24 13:51 | 24.17541 | 55.01343 | 5990 ft | 234 kts | 299° |
| 2026-04-24 13:52 | 24.18487 | 54.99856 | 5645 ft | 236 kts | 307° |
| 2026-04-24 13:52 | 24.19513 | 54.98442 | 5317 ft | 235 kts | 308° |
| 2026-04-24 13:52 | 24.20524 | 54.97065 | 5020 ft | 233 kts | 308° |
| 2026-04-24 13:52 | 24.21535 | 54.95677 | 4749 ft | 230 kts | 308° |
| 2026-04-24 13:53 | 24.22521 | 54.94309 | 4488 ft | 226 kts | 308° |
| 2026-04-24 13:53 | 24.23495 | 54.92950 | 4230 ft | 224 kts | 308° |
| 2026-04-24 13:53 | 24.24440 | 54.91627 | 4049 ft | 219 kts | 308° |
| 2026-04-24 13:53 | 24.25362 | 54.90337 | 4134 ft | 208 kts | 308° |
| 2026-04-24 13:54 | 24.26242 | 54.89107 | 3878 ft | 201 kts | 308° |
| 2026-04-24 13:54 | 24.27084 | 54.87926 | 3670 ft | 191 kts | 309° |
| 2026-04-24 13:54 | 24.27906 | 54.86774 | 3501 ft | 191 kts | 309° |
| 2026-04-24 13:54 | 24.28744 | 54.85633 | 3187 ft | 191 kts | 310° |
| 2026-04-24 13:55 | 24.29565 | 54.84509 | 3032 ft | 188 kts | 310° |
| 2026-04-24 13:55 | 24.30380 | 54.83379 | 3034 ft | 189 kts | 308° |
| 2026-04-24 13:55 | 24.31189 | 54.82241 | 3027 ft | 188 kts | 309° |
| 2026-04-24 13:55 | 24.31971 | 54.81136 | 3025 ft | 189 kts | 309° |
| 2026-04-24 13:56 | 24.32786 | 54.79978 | 3006 ft | 190 kts | 309° |
| 2026-04-24 13:56 | 24.33600 | 54.78823 | 2819 ft | 188 kts | 309° |
| 2026-04-24 13:56 | 24.34372 | 54.77726 | 2606 ft | 173 kts | 309° |
| 2026-04-24 13:56 | 24.35080 | 54.76722 | 2359 ft | 165 kts | 309° |
| 2026-04-24 13:57 | 24.35771 | 54.75745 | 2130 ft | 153 kts | 309° |
| 2026-04-24 13:57 | 24.36393 | 54.74863 | 1909 ft | 142 kts | 310° |
| 2026-04-24 13:57 | 24.37002 | 54.74004 | 1720 ft | 141 kts | 310° |
| 2026-04-24 13:57 | 24.37598 | 54.73166 | 1548 ft | 138 kts | 308° |
| 2026-04-24 13:58 | 24.38181 | 54.72340 | 1355 ft | 136 kts | 311° |
| 2026-04-24 13:58 | 24.38771 | 54.71509 | 1177 ft | 136 kts | 311° |
| 2026-04-24 13:58 | 24.39354 | 54.70697 | 1009 ft | 135 kts | 308° |
| 2026-04-24 13:58 | 24.39925 | 54.69876 | 818 ft | 134 kts | 307° |
| 2026-04-24 13:59 | 24.40484 | 54.69062 | 638 ft | 133 kts | 310° |
| 2026-04-24 13:59 | 24.41062 | 54.68274 | 481 ft | 134 kts | 311° |
| 2026-04-24 13:59 | 24.41639 | 54.67447 | 297 ft | 134 kts | 310° |
| 2026-04-24 13:59 | 24.42211 | 54.66639 | 131 ft | 133 kts | 310° |
| 2026-04-24 14:00 | 24.42767 | 54.65873 | 92 ft | 112 kts | 310° |
| 2026-04-24 14:00 | 24.43144 | 54.65343 | 92 ft | 63 kts | 309° |
| 2026-04-24 14:00 | 24.43360 | 54.65046 | 92 ft | 46 kts | 311° |
| 2026-04-24 14:00 | 24.43605 | 54.64872 | 92 ft | 40 kts | 339° |
| 2026-04-24 14:01 | 24.43771 | 54.64772 | 92 ft | 19 kts | 310° |
| 2026-04-24 14:01 | 24.43873 | 54.64684 | 92 ft | 19 kts | 7° |
| 2026-04-24 14:01 | 24.43981 | 54.64764 | 92 ft | 17 kts | 32° |
| 2026-04-24 14:01 | 24.44064 | 54.64745 | 92 ft | 13 kts | 312° |
| 2026-04-24 14:02 | 24.44124 | 54.64659 | 92 ft | 14 kts | 308° |
| 2026-04-24 14:02 | 24.44188 | 54.64568 | 92 ft | 15 kts | 308° |
| 2026-04-24 14:02 | 24.44258 | 54.64471 | 92 ft | 16 kts | 308° |
| 2026-04-24 14:02 | 24.44327 | 54.64446 | 92 ft | 10 kts | 23° |
| 2026-04-24 14:03 | 24.44390 | 54.64457 | 92 ft | 6 kts | 359° |
| 2026-04-24 14:03 | 24.44403 | 54.64457 | 92 ft | 0 kts | 358° |